Home > Products > Valid Products > TAF

000
FTUS46 KLOX 231445 AAB
TAFLAX
TAF AMD
KLAX 231445Z 2315/2418 VRB03KT P6SM BKN025 BKN040
     FM231900 25012KT P6SM BKN030
     FM240300 25010KT P6SM BKN025
     FM240900 26007KT P6SM OVC025
     FM241300 09005KT P6SM BKN030
     FM241700 23006KT P6SM BKN040=



000
FTUS46 KLOX 231348 AAA
TAFLGB
TAF AMD
KLGB 231348Z 2314/2412 VRB03KT P6SM BKN020
     FM231600 VRB04KT P6SM BKN025
     FM231900 19008KT P6SM SCT035
     FM240300 VRB03KT P6SM BKN035
     FM240900 15005KT P6SM OVC040=



000
FTUS46 KLOX 231348 AAA
TAFLAX
TAF AMD
KLAX 231348Z 2314/2418 VRB03KT P6SM BKN025 BKN050
     FM231900 25012KT P6SM BKN030
     FM240300 25010KT P6SM BKN025
     FM240900 26007KT P6SM OVC025
     FM241300 09005KT P6SM BKN030
     FM241700 23006KT P6SM BKN040=



000
FTUS46 KLOX 231348 AAA
TAFLAX
TAF AMD
KLAX 231348Z 2314/2418 VRB03KT P6SM BKN025 BKN050
     FM231900 25012KT P6SM BKN030
     FM240300 25010KT P6SM BKN025
     FM240900 26007KT P6SM OVC025
     FM241300 09005KT P6SM BKN030
     FM241700 23006KT P6SM BKN040=



000
FTUS46 KLOX 231347 AAA
TAFSBA
TAF AMD
KSBA 231347Z 2314/2412 VRB05KT P6SM SCT035
     FM231800 21008KT P6SM SCT035
     FM232100 25015G20KT P6SM SCT035
     FM240200 30008KT P6SM SCT035=



000
FTUS46 KLOX 231346 AAA
TAFPRB
TAF AMD
KPRB 231346Z 2314/2412 30005KT P6SM OVC018
     FM231700 28008KT P6SM SCT035 SCT250
     FM232100 22015G25KT P6SM SCT035
     FM240200 30012KT P6SM SCT035
     FM240900 32006KT P6SM SCT040=



000
FTUS46 KLOX 231146
TAFWJF
TAF
KWJF 231146Z 2312/2412 23015KT P6SM SCT050
     FM232000 24022G32KT P6SM SCT050
     FM240400 24015KT P6SM SKC=



000
FTUS46 KLOX 231146
TAFVNY
TAF
KVNY 231146Z 2312/2412 VRB03KT P6SM SKC
     FM231900 14010KT P6SM BKN035
     FM240300 16005KT P6SM BKN040
     FM240900 VRB03KT P6SM BKN050=



000
FTUS46 KLOX 231146
TAFPRB
TAF
KPRB 231146Z 2312/2412 27006KT P6SM SKC
     FM231500 31006KT P6SM SCT035 SCT250
     FM232100 22015KT P6SM SCT035
     FM240200 30012KT P6SM SCT035
     FM240900 32006KT P6SM SCT040=



000
FTUS46 KLOX 231146
TAFBUR
TAF
KBUR 231146Z 2312/2412 VRB03KT P6SM SCT060
     FM231900 17010KT P6SM BKN035
     FM240300 17005KT P6SM BKN050=



000
FTUS46 KLOX 231146
TAFLGB
TAF
KLGB 231146Z 2312/2412 VRB03KT P6SM SCT025
     FM231600 VRB03KT P6SM BKN025
     FM231900 19008KT P6SM SCT035
     FM240300 VRB03KT P6SM BKN035
     FM240900 15005KT P6SM OVC040=



000
FTUS46 KLOX 231146
TAFSBA
TAF
KSBA 231146Z 2312/2412 VRB03KT P6SM BKN035
     FM231800 21008KT P6SM SCT035
     FM232100 25015G20KT P6SM SCT035
     FM240200 30008KT P6SM SCT035=



000
FTUS46 KLOX 231146
TAFSMX
TAF
KSMX 231146Z 2312/2412 30008KT P6SM OVC019
     FM231800 31007KT P6SM SCT025
     FM232100 31015G25KT P6SM SCT030
     FM240300 31008KT P6SM BKN020
     FM240700 VRB04KT P6SM OVC015=



000
FTUS46 KLOX 231146
TAFLAX
TAF
KLAX 231146Z 2312/2418 VRB03KT P6SM SCT060 SCT180
     FM231900 25012KT P6SM BKN030
     FM240300 25010KT P6SM BKN025
     FM240900 26007KT P6SM OVC025
     FM241300 09005KT P6SM BKN030
     FM241700 23006KT P6SM BKN040=



000
FTUS46 KLOX 231146
TAFSBP
TAF
KSBP 231146Z 2312/2412 VRB03KT P6SM OVC015
     FM231800 31007KT P6SM SCT025
     FM232100 31015G25KT P6SM SCT030
     FM240300 31008KT P6SM BKN025
     FM240700 31005KT P6SM OVC015=



000
FTUS46 KLOX 231146
TAFPMD
TAF
KPMD 231146Z 2312/2412 23012KT P6SM BKN050
     FM232000 24022G32KT P6SM SCT050
     FM240400 24015KT P6SM SKC=



000
FTUS46 KLOX 231146
TAFSMX
TAF
KSMX 231146Z 2312/2412 30008KT P6SM OVC019
     FM231800 31007KT P6SM SCT025
     FM232100 31015G25KT P6SM SCT030
     FM240300 31008KT P6SM BKN020
     FM240700 VRB04KT P6SM OVC015=



000
FTUS46 KLOX 231146
TAFSBA
TAF
KSBA 231146Z 2312/2412 VRB03KT P6SM BKN035
     FM231800 21008KT P6SM SCT035
     FM232100 25015G20KT P6SM SCT035
     FM240200 30008KT P6SM SCT035=



000
FTUS46 KLOX 231146
TAFPMD
TAF
KPMD 231146Z 2312/2412 23012KT P6SM BKN050
     FM232000 24022G32KT P6SM SCT050
     FM240400 24015KT P6SM SKC=



000
FTUS46 KLOX 231146
TAFLAX
TAF
KLAX 231146Z 2312/2418 VRB03KT P6SM SCT060 SCT180
     FM231900 25012KT P6SM BKN030
     FM240300 25010KT P6SM BKN025
     FM240900 26007KT P6SM OVC025
     FM241300 09005KT P6SM BKN030
     FM241700 23006KT P6SM BKN040=



000
FTUS46 KLOX 231146
TAFSBP
TAF
KSBP 231146Z 2312/2412 VRB03KT P6SM OVC015
     FM231800 31007KT P6SM SCT025
     FM232100 31015G25KT P6SM SCT030
     FM240300 31008KT P6SM BKN025
     FM240700 31005KT P6SM OVC015=



000
FTUS46 KLOX 231146
TAFBUR
TAF
KBUR 231146Z 2312/2412 VRB03KT P6SM SCT060
     FM231900 17010KT P6SM BKN035
     FM240300 17005KT P6SM BKN050=



000
FTUS46 KLOX 231146
TAFPRB
TAF
KPRB 231146Z 2312/2412 27006KT P6SM SKC
     FM231500 31006KT P6SM SCT035 SCT250
     FM232100 22015KT P6SM SCT035
     FM240200 30012KT P6SM SCT035
     FM240900 32006KT P6SM SCT040=



000
FTUS46 KLOX 231146
TAFVNY
TAF
KVNY 231146Z 2312/2412 VRB03KT P6SM SKC
     FM231900 14010KT P6SM BKN035
     FM240300 16005KT P6SM BKN040
     FM240900 VRB03KT P6SM BKN050=



000
FTUS46 KLOX 231146
TAFLGB
TAF
KLGB 231146Z 2312/2412 VRB03KT P6SM SCT025
     FM231600 VRB03KT P6SM BKN025
     FM231900 19008KT P6SM SCT035
     FM240300 VRB03KT P6SM BKN035
     FM240900 15005KT P6SM OVC040=



000
FTUS46 KLOX 231146
TAFWJF
TAF
KWJF 231146Z 2312/2412 23015KT P6SM SCT050
     FM232000 24022G32KT P6SM SCT050
     FM240400 24015KT P6SM SKC=



000
FTUS46 KLOX 230907 AAA
TAFLAX
TAF AMD
KLAX 230907Z 2309/2412 25009KT P6SM SCT040 SCT100
     FM231200 VRB03KT P6SM BKN025
     FM231900 25012KT P6SM SCT040
     FM240300 25010KT P6SM BKN035
     FM240900 26007KT P6SM OVC025=



000
FTUS46 KLOX 230540
TAFVNY
TAF
KVNY 230540Z 2306/2406 14006KT P6SM BKN040
     FM231000 14006KT P6SM BKN025
     FM231900 14010KT P6SM BKN035=



000
FTUS46 KLOX 230540
TAFBUR
TAF
KBUR 230540Z 2306/2406 16006KT P6SM BKN045
     FM231000 16006KT P6SM BKN025
     FM231900 17010KT P6SM BKN035=



000
FTUS46 KLOX 230540
TAFSMX
TAF
KSMX 230540Z 2306/2406 31006KT P6SM OVC030
     FM231200 VRB03KT P6SM BKN025
     FM231800 31007KT P6SM SCT030
     FM232100 31015G25KT P6SM SCT030
     FM240300 31008KT P6SM BKN025=



000
FTUS46 KLOX 230540
TAFSBP
TAF
KSBP 230540Z 2306/2406 31006KT P6SM OVC018
     FM231200 VRB03KT P6SM BKN025
     FM231800 31007KT P6SM SCT030
     FM232100 31015G25KT P6SM SCT030
     FM240300 31008KT P6SM BKN025=



000
FTUS46 KLOX 230540
TAFPRB
TAF
KPRB 230540Z 2306/2406 29010KT P6SM SCT040
     FM230900 VRB03KT P6SM BKN035
     FM231500 31006KT P6SM SCT035 SCT250
     FM232100 22015KT P6SM SCT035
     FM240200 30012KT P6SM SCT035=



000
FTUS46 KLOX 230540
TAFSBA
TAF
KSBA 230540Z 2306/2406 VRB03KT P6SM SCT040
     FM231200 VRB03KT P6SM BKN035
     FM231800 21008KT P6SM SCT035
     FM232100 25015G20KT P6SM SCT035
     FM240200 30008KT P6SM SCT035=



000
FTUS46 KLOX 230540
TAFWJF
TAF
KWJF 230540Z 2306/2406 23015G20KT P6SM BKN050
     FM230900 23015KT P6SM SCT050
     FM232000 24022G32KT P6SM SCT050
     FM240400 24015KT P6SM SKC=



000
FTUS46 KLOX 230540
TAFLAX
TAF
KLAX 230540Z 2306/2412 25009KT P6SM SCT025 BKN050
     FM231200 VRB03KT P6SM BKN025
     FM231900 25012KT P6SM SCT040
     FM240300 25010KT P6SM BKN035
     FM240900 26007KT P6SM OVC025=



000
FTUS46 KLOX 230540
TAFLGB
TAF
KLGB 230540Z 2306/2406 VRB03KT P6SM SCT025 BKN050
     FM231200 VRB03KT P6SM BKN025
     FM231900 19008KT P6SM SCT040
     FM240300 VRB03KT P6SM BKN035=



000
FTUS46 KLOX 230540
TAFPMD
TAF
KPMD 230540Z 2306/2406 23012KT P6SM BKN050
     FM232000 24022G32KT P6SM SCT050
     FM240400 24015KT P6SM SKC=



000
FTUS46 KLOX 230540
TAFBUR
TAF
KBUR 230540Z 2306/2406 16006KT P6SM BKN045
     FM231000 16006KT P6SM BKN025
     FM231900 17010KT P6SM BKN035=



000
FTUS46 KLOX 230540
TAFLGB
TAF
KLGB 230540Z 2306/2406 VRB03KT P6SM SCT025 BKN050
     FM231200 VRB03KT P6SM BKN025
     FM231900 19008KT P6SM SCT040
     FM240300 VRB03KT P6SM BKN035=



000
FTUS46 KLOX 230540
TAFPMD
TAF
KPMD 230540Z 2306/2406 23012KT P6SM BKN050
     FM232000 24022G32KT P6SM SCT050
     FM240400 24015KT P6SM SKC=



000
FTUS46 KLOX 230540
TAFLAX
TAF
KLAX 230540Z 2306/2412 25009KT P6SM SCT025 BKN050
     FM231200 VRB03KT P6SM BKN025
     FM231900 25012KT P6SM SCT040
     FM240300 25010KT P6SM BKN035
     FM240900 26007KT P6SM OVC025=



000
FTUS46 KLOX 230540
TAFWJF
TAF
KWJF 230540Z 2306/2406 23015G20KT P6SM BKN050
     FM230900 23015KT P6SM SCT050
     FM232000 24022G32KT P6SM SCT050
     FM240400 24015KT P6SM SKC=



000
FTUS46 KLOX 230540
TAFSBA
TAF
KSBA 230540Z 2306/2406 VRB03KT P6SM SCT040
     FM231200 VRB03KT P6SM BKN035
     FM231800 21008KT P6SM SCT035
     FM232100 25015G20KT P6SM SCT035
     FM240200 30008KT P6SM SCT035=



000
FTUS46 KLOX 230540
TAFPRB
TAF
KPRB 230540Z 2306/2406 29010KT P6SM SCT040
     FM230900 VRB03KT P6SM BKN035
     FM231500 31006KT P6SM SCT035 SCT250
     FM232100 22015KT P6SM SCT035
     FM240200 30012KT P6SM SCT035=



000
FTUS46 KLOX 230540
TAFSBP
TAF
KSBP 230540Z 2306/2406 31006KT P6SM OVC018
     FM231200 VRB03KT P6SM BKN025
     FM231800 31007KT P6SM SCT030
     FM232100 31015G25KT P6SM SCT030
     FM240300 31008KT P6SM BKN025=



000
FTUS46 KLOX 230540
TAFSMX
TAF
KSMX 230540Z 2306/2406 31006KT P6SM OVC030
     FM231200 VRB03KT P6SM BKN025
     FM231800 31007KT P6SM SCT030
     FM232100 31015G25KT P6SM SCT030
     FM240300 31008KT P6SM BKN025=



000
FTUS46 KLOX 230540
TAFVNY
TAF
KVNY 230540Z 2306/2406 14006KT P6SM BKN040
     FM231000 14006KT P6SM BKN025
     FM231900 14010KT P6SM BKN035=



000
FTUS46 KLOX 230259 AAA
TAFSMX
TAF AMD
KSMX 230259Z 2303/2324 30010KT P6SM BKN015
     FM230700 30005KT 5SM BR OVC012
     FM231500 VRB03KT P6SM BKN020
     FM231800 31009KT P6SM SCT030
     FM232100 30015G22KT P6SM SCT030=



000
FTUS46 KLOX 230259 AAA
TAFSMX
TAF AMD
KSMX 230259Z 2303/2324 30010KT P6SM BKN015
     FM230700 30005KT 5SM BR OVC012
     FM231500 VRB03KT P6SM BKN020
     FM231800 31009KT P6SM SCT030
     FM232100 30015G22KT P6SM SCT030=



000
FTUS46 KLOX 230259 AAB
TAFLAX
TAF AMD
KLAX 230259Z 2303/2406 25010KT P6SM BKN015 BKN050
      TEMPO 2303/2305 SCT015
     FM230500 25009KT P6SM BKN040
     FM231900 25012KT P6SM SCT050
     FM240400 24010KT P6SM BKN035=



000
FTUS46 KLOX 230259 AAB
TAFLAX
TAF AMD
KLAX 230259Z 2303/2406 25010KT P6SM BKN015 BKN050
      TEMPO 2303/2305 SCT015
     FM230500 25009KT P6SM BKN040
     FM231900 25012KT P6SM SCT050
     FM240400 24010KT P6SM BKN035=



000
FTUS46 KLOX 230258 AAA
TAFLAX
TAF AMD
KLAX 230258Z 2303/2406 25010KT P6SM SCT015 BKN050
     FM230500 25009KT P6SM BKN040
     FM231900 25012KT P6SM SCT050
     FM240400 24010KT P6SM BKN035=



000
FTUS46 KLOX 230258 AAA
TAFLAX
TAF AMD
KLAX 230258Z 2303/2406 25010KT P6SM SCT015 BKN050
     FM230500 25009KT P6SM BKN040
     FM231900 25012KT P6SM SCT050
     FM240400 24010KT P6SM BKN035=



000
FTUS46 KLOX 222336
TAFSBP
TAF
KSBP 222336Z 2300/2324 31014KT P6SM SCT035
     FM230300 31009KT P6SM BKN030
     FM230900 VRB03KT P6SM BKN015
     FM231500 31005KT P6SM BKN025
     FM231800 31009KT P6SM SCT030
     FM232100 31015G22KT P6SM SCT030=



000
FTUS46 KLOX 222336
TAFLAX
TAF
KLAX 222336Z 2300/2406 26014G20KT P6SM SCT025 BKN100
     FM230400 26011KT P6SM BKN040
     FM231900 25012KT P6SM SCT050
     FM240400 24010KT P6SM BKN035=



000
FTUS46 KLOX 222336
TAFSBP
TAF
KSBP 222336Z 2300/2324 31014KT P6SM SCT035
     FM230300 31009KT P6SM BKN030
     FM230900 VRB03KT P6SM BKN015
     FM231500 31005KT P6SM BKN025
     FM231800 31009KT P6SM SCT030
     FM232100 31015G22KT P6SM SCT030=



000
FTUS46 KLOX 222336
TAFWJF
TAF
KWJF 222336Z 2300/2324 25025G32KT P6SM VCSH SCT050
     FM230400 25017G25KT P6SM BKN050
     FM232000 25022G30KT P6SM SCT050=



000
FTUS46 KLOX 222336
TAFSMX
TAF
KSMX 222336Z 2300/2324 30015KT P6SM SCT030
     FM230300 30009KT P6SM BKN025
     FM230900 30005KT 5SM BR OVC012
     FM231500 VRB03KT P6SM BKN020
     FM231800 31009KT P6SM SCT030
     FM232100 30015G22KT P6SM SCT030=



000
FTUS46 KLOX 222336
TAFLGB
TAF
KLGB 222336Z 2300/2324 25012G20KT P6SM BKN040
     FM230400 28007KT P6SM BKN040
     FM231200 19006KT P6SM BKN040
     FM231900 21010KT P6SM SCT050=



000
FTUS46 KLOX 222336
TAFSBA
TAF
KSBA 222336Z 2300/2324 26015G25KT P6SM SCT050
     FM230300 29008KT P6SM SCT040
     FM230900 VRB03KT P6SM SCT030
     FM231800 23008KT P6SM SCT030
     FM232100 25014G20KT P6SM SCT030=



000
FTUS46 KLOX 222336
TAFBUR
TAF
KBUR 222336Z 2300/2324 19012KT P6SM BKN040
     FM230300 16006KT P6SM BKN040
     FM231000 16006KT P6SM BKN025
     FM231900 17012KT P6SM BKN035=



000
FTUS46 KLOX 222336
TAFPRB
TAF
KPRB 222336Z 2300/2324 22013KT P6SM SCT050
     FM230400 29010KT P6SM BKN040
     FM231500 31006KT P6SM SCT030 SCT250
     FM232100 23014KT P6SM SCT030 SCT250=



000
FTUS46 KLOX 222336
TAFVNY
TAF
KVNY 222336Z 2300/2324 17008KT P6SM BKN040
     FM230400 14005KT P6SM BKN040
     FM231000 14005KT P6SM BKN025
     FM231900 15010KT P6SM BKN035=



000
FTUS46 KLOX 222336
TAFLGB
TAF
KLGB 222336Z 2300/2324 25012G20KT P6SM BKN040
     FM230400 28007KT P6SM BKN040
     FM231200 19006KT P6SM BKN040
     FM231900 21010KT P6SM SCT050=



000
FTUS46 KLOX 222336
TAFSMX
TAF
KSMX 222336Z 2300/2324 30015KT P6SM SCT030
     FM230300 30009KT P6SM BKN025
     FM230900 30005KT 5SM BR OVC012
     FM231500 VRB03KT P6SM BKN020
     FM231800 31009KT P6SM SCT030
     FM232100 30015G22KT P6SM SCT030=



000
FTUS46 KLOX 222336
TAFPMD
TAF
KPMD 222336Z 2300/2324 24022G30KT P6SM VCSH SCT040
     FM230400 25017G25KT P6SM BKN050
     FM232000 24022G30KT P6SM SCT050=



000
FTUS46 KLOX 222336
TAFLAX
TAF
KLAX 222336Z 2300/2406 26014G20KT P6SM SCT025 BKN100
     FM230400 26011KT P6SM BKN040
     FM231900 25012KT P6SM SCT050
     FM240400 24010KT P6SM BKN035=



000
FTUS46 KLOX 222336
TAFSBA
TAF
KSBA 222336Z 2300/2324 26015G25KT P6SM SCT050
     FM230300 29008KT P6SM SCT040
     FM230900 VRB03KT P6SM SCT030
     FM231800 23008KT P6SM SCT030
     FM232100 25014G20KT P6SM SCT030=



000
FTUS46 KLOX 222336
TAFWJF
TAF
KWJF 222336Z 2300/2324 25025G32KT P6SM VCSH SCT050
     FM230400 25017G25KT P6SM BKN050
     FM232000 25022G30KT P6SM SCT050=



000
FTUS46 KLOX 222336
TAFBUR
TAF
KBUR 222336Z 2300/2324 19012KT P6SM BKN040
     FM230300 16006KT P6SM BKN040
     FM231000 16006KT P6SM BKN025
     FM231900 17012KT P6SM BKN035=



000
FTUS46 KLOX 222336
TAFPRB
TAF
KPRB 222336Z 2300/2324 22013KT P6SM SCT050
     FM230400 29010KT P6SM BKN040
     FM231500 31006KT P6SM SCT030 SCT250
     FM232100 23014KT P6SM SCT030 SCT250=



000
FTUS46 KLOX 222336
TAFPMD
TAF
KPMD 222336Z 2300/2324 24022G30KT P6SM VCSH SCT040
     FM230400 25017G25KT P6SM BKN050
     FM232000 24022G30KT P6SM SCT050=



000
FTUS46 KLOX 222336
TAFVNY
TAF
KVNY 222336Z 2300/2324 17008KT P6SM BKN040
     FM230400 14005KT P6SM BKN040
     FM231000 14005KT P6SM BKN025
     FM231900 15010KT P6SM BKN035=



000
FTUS46 KLOX 222049 AAA
TAFSBP
TAF AMD
KSBP 222049Z 2221/2318 31013KT P6SM SCT035
     FM222300 31014KT P6SM SCT035 BKN050
     FM230300 31010KT P6SM BKN040
     FM230900 VRB03KT P6SM BKN015
     FM231500 31005KT P6SM BKN025=



000
FTUS46 KLOX 222048 AAB
TAFLAX
TAF AMD
KLAX 222048Z 2221/2324 26012KT P6SM SCT021 BKN100
     FM222200 26015G23KT P6SM SCT030 BKN100
     FM230400 26011KT P6SM BKN050
     FM230900 26006KT P6SM BKN035
     FM231300 23005KT P6SM SCT025 OVC035
     FM231800 25008KT P6SM BKN050
     FM232100 24011KT P6SM BKN250=



000
FTUS46 KLOX 222048 AAA
TAFPRB
TAF AMD
KPRB 222048Z 2221/2318 32006KT P6SM SCT050
     FM222300 22013KT P6SM BKN100
     FM230400 25009KT P6SM BKN050
     FM231000 29005KT P6SM BKN030
     FM231500 31006KT P6SM SCT035 SCT250=



000
FTUS46 KLOX 222012 AAA
TAFLAX
TAF AMD
KLAX 222012Z 2220/2324 26012KT P6SM SCT021 BKN100
     FM222200 26015G23KT P6SM SCT030 BKN100
     FM230400 26011KT P6SM BKN050
     FM230900 26006KT P6SM BKN035
     FM231300 23005KT P6SM SCT025 OVC035
     FM231800 25008KT P6SM BKN050
     FM232100 24011KT P6SM BKN250=



000
FTUS46 KLOX 222010 AAA
TAFSBA
TAF AMD
KSBA 222010Z 2220/2318 26015G25KT P6SM BKN050
     FM230300 29008KT P6SM BKN050
     FM230900 VRB03KT P6SM SCT100
     FM231400 03005KT P6SM BKN025=



000
FTUS46 KLOX 222010 AAA
TAFSBA
TAF AMD
KSBA 222010Z 2220/2318 26015G25KT P6SM BKN050
     FM230300 29008KT P6SM BKN050
     FM230900 VRB03KT P6SM SCT100
     FM231400 03005KT P6SM BKN025=



000
FTUS46 KLOX 221853 AAA
TAFLGB
TAF AMD
KLGB 221853Z 2219/2318 29006KT P6SM BKN035 BKN050
     FM222000 25012G20KT P6SM BKN050
     FM230400 28006KT P6SM BKN050
     FM230600 VRB03KT P6SM BKN035
     FM231600 28006KT P6SM BKN025=



000
FTUS46 KLOX 221853 AAA
TAFLGB
TAF AMD
KLGB 221853Z 2219/2318 29006KT P6SM BKN035 BKN050
     FM222000 25012G20KT P6SM BKN050
     FM230400 28006KT P6SM BKN050
     FM230600 VRB03KT P6SM BKN035
     FM231600 28006KT P6SM BKN025=



000
FTUS46 KLOX 221740
TAFSBA
TAF
KSBA 221740Z 2218/2318 26010KT P6SM SCT050
     FM222000 25010KT P6SM BKN050
     FM222300 27012G18KT P6SM BKN050
     FM230300 29008KT P6SM BKN050
     FM230900 VRB03KT P6SM SCT100
     FM231400 03005KT P6SM BKN025=



000
FTUS46 KLOX 221740
TAFPMD
TAF
KPMD 221740Z 2218/2318 26015G25KT P6SM SCT100
     FM222200 24025G35KT P6SM VCSH SCT100
     FM230400 24015G25KT P6SM BKN050
     FM231000 23012KT P6SM BKN050
     FM231500 24015G22KT P6SM BKN250=



000
FTUS46 KLOX 221740
TAFLGB
TAF
KLGB 221740Z 2218/2318 29006KT P6SM BKN028 BKN040
     FM222000 25012G20KT P6SM BKN050
     FM230400 28006KT P6SM BKN050
     FM230600 VRB03KT P6SM BKN035
     FM231600 28006KT P6SM BKN025=



000
FTUS46 KLOX 221740
TAFLAX
TAF
KLAX 221740Z 2218/2324 27013KT P6SM SCT020 SCT050 BKN100
     FM222000 26015G23KT P6SM SCT030 BKN100
     FM230400 26011KT P6SM BKN050
     FM230900 26006KT P6SM BKN035
     FM231300 23005KT P6SM SCT025 OVC035
     FM231800 25008KT P6SM BKN050
     FM232100 24011KT P6SM BKN250=



000
FTUS46 KLOX 221740
TAFPRB
TAF
KPRB 221740Z 2218/2318 26009KT P6SM BKN025 BKN060
     FM222100 22010KT P6SM SCT035 BKN050
     FM222300 22013G20KT P6SM BKN100
     FM230400 25009KT P6SM BKN050
     FM231000 29005KT P6SM BKN030
     FM231500 31006KT P6SM SCT035 SCT250=



000
FTUS46 KLOX 221740
TAFBUR
TAF
KBUR 221740Z 2218/2318 VRB06KT P6SM BKN025 BKN040
     FM222000 18007KT P6SM SCT025 BKN040
     FM222200 17012KT P6SM BKN050
     FM230300 19006KT P6SM BKN050
     FM231000 15005KT P6SM BKN025=



000
FTUS46 KLOX 221740
TAFSMX
TAF
KSMX 221740Z 2218/2318 31005KT P6SM BKN025 BKN035
     FM222000 30009KT P6SM SCT035 BKN040
     FM222100 30014KT P6SM SCT035 BKN050
     FM230300 30009KT P6SM BKN025
     FM230900 30005KT 5SM BR SCT007 OVC012
     FM231500 VRB03KT P6SM SCT015 SCT250=



000
FTUS46 KLOX 221740
TAFBUR
TAF
KBUR 221740Z 2218/2318 VRB06KT P6SM BKN025 BKN040
     FM222000 18007KT P6SM SCT025 BKN040
     FM222200 17012KT P6SM BKN050
     FM230300 19006KT P6SM BKN050
     FM231000 15005KT P6SM BKN025=



000
FTUS46 KLOX 221740
TAFSBP
TAF
KSBP 221740Z 2218/2318 32006KT P6SM BKN025 OVC050
     FM222100 30010KT P6SM BKN035
     FM222300 31014KT P6SM SCT035 BKN050
     FM230300 31010KT P6SM BKN040
     FM230900 VRB03KT P6SM BKN015
     FM231500 31005KT P6SM BKN025=



000
FTUS46 KLOX 221740
TAFLGB
TAF
KLGB 221740Z 2218/2318 29006KT P6SM BKN028 BKN040
     FM222000 25012G20KT P6SM BKN050
     FM230400 28006KT P6SM BKN050
     FM230600 VRB03KT P6SM BKN035
     FM231600 28006KT P6SM BKN025=



000
FTUS46 KLOX 221740
TAFSBA
TAF
KSBA 221740Z 2218/2318 26010KT P6SM SCT050
     FM222000 25010KT P6SM BKN050
     FM222300 27012G18KT P6SM BKN050
     FM230300 29008KT P6SM BKN050
     FM230900 VRB03KT P6SM SCT100
     FM231400 03005KT P6SM BKN025=



000
FTUS46 KLOX 221740
TAFPMD
TAF
KPMD 221740Z 2218/2318 26015G25KT P6SM SCT100
     FM222200 24025G35KT P6SM VCSH SCT100
     FM230400 24015G25KT P6SM BKN050
     FM231000 23012KT P6SM BKN050
     FM231500 24015G22KT P6SM BKN250=



000
FTUS46 KLOX 221740
TAFPRB
TAF
KPRB 221740Z 2218/2318 26009KT P6SM BKN025 BKN060
     FM222100 22010KT P6SM SCT035 BKN050
     FM222300 22013G20KT P6SM BKN100
     FM230400 25009KT P6SM BKN050
     FM231000 29005KT P6SM BKN030
     FM231500 31006KT P6SM SCT035 SCT250=



000
FTUS46 KLOX 221740
TAFLAX
TAF
KLAX 221740Z 2218/2324 27013KT P6SM SCT020 SCT050 BKN100
     FM222000 26015G23KT P6SM SCT030 BKN100
     FM230400 26011KT P6SM BKN050
     FM230900 26006KT P6SM BKN035
     FM231300 23005KT P6SM SCT025 OVC035
     FM231800 25008KT P6SM BKN050
     FM232100 24011KT P6SM BKN250=



000
FTUS46 KLOX 221740
TAFVNY
TAF
KVNY 221740Z 2218/2318 VRB05KT P6SM SCT030 BKN080
     FM222100 18008KT P6SM BKN040 BKN080
     FM230400 VRB04KT P6SM BKN050
     FM231000 VRB03KT P6SM BKN025=



000
FTUS46 KLOX 221740
TAFWJF
TAF
KWJF 221740Z 2218/2318 26020G30KT P6SM BKN100
     FM222000 24025G35KT P6SM BKN150
     FM230400 24017G25KT P6SM BKN150
     FM231000 23015KT P6SM BKN050
     FM231500 26022G27KT P6SM BKN250=



000
FTUS46 KLOX 221740
TAFWJF
TAF
KWJF 221740Z 2218/2318 26020G30KT P6SM BKN100
     FM222000 24025G35KT P6SM BKN150
     FM230400 24017G25KT P6SM BKN150
     FM231000 23015KT P6SM BKN050
     FM231500 26022G27KT P6SM BKN250=



000
FTUS46 KLOX 221740
TAFVNY
TAF
KVNY 221740Z 2218/2318 VRB05KT P6SM SCT030 BKN080
     FM222100 18008KT P6SM BKN040 BKN080
     FM230400 VRB04KT P6SM BKN050
     FM231000 VRB03KT P6SM BKN025=



000
FTUS46 KLOX 221740
TAFSBP
TAF
KSBP 221740Z 2218/2318 32006KT P6SM BKN025 OVC050
     FM222100 30010KT P6SM BKN035
     FM222300 31014KT P6SM SCT035 BKN050
     FM230300 31010KT P6SM BKN040
     FM230900 VRB03KT P6SM BKN015
     FM231500 31005KT P6SM BKN025=



000
FTUS46 KLOX 221740
TAFSMX
TAF
KSMX 221740Z 2218/2318 31005KT P6SM BKN025 BKN035
     FM222000 30009KT P6SM SCT035 BKN040
     FM222100 30014KT P6SM SCT035 BKN050
     FM230300 30009KT P6SM BKN025
     FM230900 30005KT 5SM BR SCT007 OVC012
     FM231500 VRB03KT P6SM SCT015 SCT250=



000
FTUS46 KLOX 221643 AAB
TAFBUR
TAF AMD
KBUR 221643Z 2217/2312 VRB05KT P6SM BKN035 BKN080
     FM221900 16007KT P6SM VCSH SCT025 BKN040
     FM222200 17012KT P6SM BKN050
     FM230300 17007KT P6SM BKN025
     FM231000 14006KT P6SM OVC025=



000
FTUS46 KLOX 221641 AAC
TAFSMX
TAF AMD
KSMX 221641Z 2217/2312 30006KT P6SM SCT017 BKN025
     FM221900 30008KT P6SM SCT025 BKN040
     FM222100 30015G22KT P6SM SCT035 BKN050
     FM230300 30010KT P6SM BKN025
     FM230700 VRB03KT P6SM OVC015=



000
FTUS46 KLOX 221640 AAD
TAFPRB
TAF AMD
KPRB 221640Z 2217/2312 26009KT P6SM BKN025 BKN060
     FM221900 25010KT P6SM VCSH BKN025 OVC050
     FM222100 22015G20KT P6SM SCT035 BKN050
     FM230200 30012KT P6SM BKN050
     FM230700 30006KT P6SM OVC040=



000
FTUS46 KLOX 221639 AAA
TAFSBA
TAF AMD
KSBA 221639Z 2217/2312 34010G15KT P6SM VCSH SCT040
     FM222000 26015G20KT P6SM BKN050 WS010/34025KT
     FM230200 29009KT P6SM BKN050 WS010/35030KT
     FM230500 VRB03KT P6SM SCT100
     FM231000 06006KT P6SM BKN020=



000
FTUS46 KLOX 221519 AAB
TAFSMX
TAF AMD
KSMX 221519Z 2215/2312 30006KT 6SM BR BKN012 BKN030
     FM221800 30007KT P6SM VCSH BKN015 OVC040
     FM222100 30015G22KT P6SM SCT035 BKN050
     FM230300 30010KT P6SM BKN025
     FM230700 VRB03KT P6SM OVC015=



000
FTUS46 KLOX 221518 AAA
TAFLAX
TAF AMD
KLAX 221518Z 2215/2318 27013KT P6SM SCT050 BKN100
     FM221900 25014KT P6SM VCSH SCT025 OVC035
     FM222100 25015G20KT P6SM BKN040
     FM230400 27012KT P6SM BKN035
     FM230900 28007KT P6SM BKN025
     FM231300 23005KT P6SM BKN015 OVC025=



000
FTUS46 KLOX 221506 AAC
TAFPRB
TAF AMD
KPRB 221506Z 2215/2312 33008KT P6SM BKN060
     FM221900 24008KT P6SM VCSH BKN025 OVC050
     FM222100 22015G20KT P6SM SCT035 BKN050
     FM230200 30012KT P6SM BKN050
     FM230700 30006KT P6SM OVC040=



000
FTUS46 KLOX 221455 AAB
TAFVNY
TAF AMD
KVNY 221455Z 2215/2312 VRB03KT P6SM VCSH SCT035 BKN090
     FM221800 17010KT P6SM VCSH SCT025 BKN040
     FM222200 18010KT P6SM BKN050
     FM230300 17007KT P6SM BKN025
     FM231000 13006KT P6SM OVC025=



000
FTUS46 KLOX 221453 AAA
TAFLGB
TAF AMD
KLGB 221453Z 2215/2312 26005KT P6SM VCSH SCT040 OVC100
     FM221800 22008KT P6SM VCSH SCT025 OVC035
     FM222100 25015G20KT P6SM BKN040
     FM230400 27010KT P6SM BKN035
     FM230700 VRB04KT P6SM OVC015=



000
FTUS46 KLOX 221414 AAA
TAFSMX
TAF AMD
KSMX 221414Z 2214/2312 30006KT 5SM BR BKN007 BKN025
     FM221600 30006KT 6SM BR BKN012 BKN030
     FM221800 30007KT P6SM VCSH BKN015 OVC040
     FM222100 30015G22KT P6SM SCT035 BKN050
     FM230300 30010KT P6SM BKN025
     FM230700 VRB03KT P6SM OVC015=



000
FTUS46 KLOX 221412 AAB
TAFPRB
TAF AMD
KPRB 221412Z 2214/2312 31006KT P6SM VCSH OVC019
     FM221700 21008KT P6SM VCSH BKN025 OVC050
     FM222100 22015G20KT P6SM SCT035 BKN050
     FM230200 30012KT P6SM BKN050
     FM230700 30006KT P6SM OVC040=



000
FTUS46 KLOX 221412 AAA
TAFSBP
TAF AMD
KSBP 221412Z 2214/2312 31005KT P6SM VCSH OVC027
     FM221800 31008KT P6SM VCSH BKN035 OVC050
     FM222200 31015G22KT P6SM SCT035 BKN050
     FM230300 31010KT P6SM BKN025
     FM230900 VRB03KT P6SM OVC015=



000
FTUS46 KLOX 221203 AAA
TAFVNY
TAF AMD
KVNY 221203Z 2212/2312 VRB03KT P6SM SCT025 OVC060
     FM221400 VRB03KT P6SM VCSH BKN025 BKN040
     FM221800 17010KT P6SM VCSH SCT025 BKN040
     FM222200 18010KT P6SM BKN050
     FM230300 17007KT P6SM BKN025
     FM231000 13006KT P6SM OVC025=



000
FTUS46 KLOX 221203 AAA
TAFVNY
TAF AMD
KVNY 221203Z 2212/2312 VRB03KT P6SM SCT025 OVC060
     FM221400 VRB03KT P6SM VCSH BKN025 BKN040
     FM221800 17010KT P6SM VCSH SCT025 BKN040
     FM222200 18010KT P6SM BKN050
     FM230300 17007KT P6SM BKN025
     FM231000 13006KT P6SM OVC025=



000
FTUS46 KLOX 221202 AAA
TAFPRB
TAF AMD
KPRB 221202Z 2212/2312 VRB03KT P6SM BKN018 OVC030
     FM221400 VRB03KT P6SM VCSH BKN025 OVC040
     FM221700 21008KT P6SM VCSH BKN035 OVC050
     FM222100 22015G20KT P6SM SCT035 BKN050
     FM230200 30012KT P6SM BKN050
     FM230700 30006KT P6SM OVC040=



000
FTUS46 KLOX 221202 AAA
TAFBUR
TAF AMD
KBUR 221202Z 2212/2312 VRB03KT P6SM SCT025 OVC060
     FM221400 VRB03KT P6SM VCSH BKN025 BKN040
     FM221800 17010KT P6SM VCSH SCT025 BKN040
     FM222200 17012KT P6SM BKN050
     FM230300 17007KT P6SM BKN025
     FM231000 14006KT P6SM OVC025=



000
FTUS46 KLOX 221202 AAA
TAFBUR
TAF AMD
KBUR 221202Z 2212/2312 VRB03KT P6SM SCT025 OVC060
     FM221400 VRB03KT P6SM VCSH BKN025 BKN040
     FM221800 17010KT P6SM VCSH SCT025 BKN040
     FM222200 17012KT P6SM BKN050
     FM230300 17007KT P6SM BKN025
     FM231000 14006KT P6SM OVC025=



000
FTUS46 KLOX 221202 AAA
TAFPRB
TAF AMD
KPRB 221202Z 2212/2312 VRB03KT P6SM BKN018 OVC030
     FM221400 VRB03KT P6SM VCSH BKN025 OVC040
     FM221700 21008KT P6SM VCSH BKN035 OVC050
     FM222100 22015G20KT P6SM SCT035 BKN050
     FM230200 30012KT P6SM BKN050
     FM230700 30006KT P6SM OVC040=



000
FTUS46 KLOX 221201 AAA
TAFWJF
TAF AMD
KWJF 221201Z 2212/2312 23015G22KT P6SM SCT025 BKN050
     FM222000 24025G35KT P6SM VCSH SCT035 BKN050
     FM230400 24017G25KT P6SM BKN050
     FM231000 23015KT P6SM BKN050=



000
FTUS46 KLOX 221201 AAA
TAFWJF
TAF AMD
KWJF 221201Z 2212/2312 23015G22KT P6SM SCT025 BKN050
     FM222000 24025G35KT P6SM VCSH SCT035 BKN050
     FM230400 24017G25KT P6SM BKN050
     FM231000 23015KT P6SM BKN050=



000
FTUS46 KLOX 221158 AAA
TAFPMD
TAF AMD
KPMD 221158Z 2212/2312 23018KT P6SM BKN110
     FM221800 24025G35KT P6SM VCSH SCT035 BKN050
     FM230400 24017G25KT P6SM BKN050
     FM231000 23012KT P6SM BKN050=



000
FTUS46 KLOX 221158 AAA
TAFPMD
TAF AMD
KPMD 221158Z 2212/2312 23018KT P6SM BKN110
     FM221800 24025G35KT P6SM VCSH SCT035 BKN050
     FM230400 24017G25KT P6SM BKN050
     FM231000 23012KT P6SM BKN050=



000
FTUS46 KLOX 221151
TAFLGB
TAF
KLGB 221151Z 2212/2312 27008KT P6SM BKN070
     FM221330 27008KT P6SM VCSH BKN025 OVC050
     FM221800 22008KT P6SM VCSH SCT025 OVC035
     FM222100 25015G20KT P6SM BKN040
     FM230400 27010KT P6SM BKN035
     FM230700 VRB04KT P6SM OVC015=



000
FTUS46 KLOX 221151
TAFBUR
TAF
KBUR 221151Z 2212/2312 VRB03KT P6SM BKN025 OVC060
     FM221400 VRB03KT P6SM VCSH BKN025 BKN040
     FM221800 17010KT P6SM VCSH SCT025 BKN040
     FM222200 17012KT P6SM BKN050
     FM230300 17007KT P6SM BKN025
     FM231000 14006KT P6SM OVC025=



000
FTUS46 KLOX 221151
TAFSMX
TAF
KSMX 221151Z 2212/2312 VRB03KT 5SM BR BKN008 BKN020 OVC030
     FM221300 VRB03KT P6SM VCSH BKN008 OVC030
     FM221800 30007KT P6SM VCSH BKN015 OVC040
     FM222100 30015G22KT P6SM SCT035 BKN050
     FM230300 30010KT P6SM BKN025
     FM230700 VRB03KT P6SM OVC015=



000
FTUS46 KLOX 221151
TAFSBA
TAF
KSBA 221151Z 2212/2312 VRB03KT P6SM BKN080 BKN120
     FM221500 VRB03KT P6SM VCSH BKN025 OVC050
     FM221700 19007KT P6SM VCSH SCT025 BKN050
     FM222000 26015G20KT P6SM BKN050 WS010/34025KT
     FM230200 29009KT P6SM BKN050 WS010/35030KT
     FM230500 VRB03KT P6SM SCT100
     FM231000 06006KT P6SM BKN020=



000
FTUS46 KLOX 221151
TAFSBP
TAF
KSBP 221151Z 2212/2312 VRB03KT P6SM SCT012 BKN025
     FM221400 VRB03KT P6SM VCSH BKN015 OVC030
     FM221800 31008KT P6SM VCSH BKN035 OVC050
     FM222200 31015G22KT P6SM SCT035 BKN050
     FM230300 31010KT P6SM BKN025
     FM230900 VRB03KT P6SM OVC015=



000
FTUS46 KLOX 221151
TAFPRB
TAF
KPRB 221151Z 2212/2312 VRB03KT P6SM OVC035
     FM221400 VRB03KT P6SM VCSH BKN025 OVC040
     FM221700 21008KT P6SM VCSH BKN035 OVC050
     FM222100 22015G20KT P6SM SCT035 BKN050
     FM230200 30012KT P6SM BKN050
     FM230700 30006KT P6SM OVC040=



000
FTUS46 KLOX 221151
TAFPMD
TAF
KPMD 221151Z 2212/2312 23015G22KT P6SM SCT025 BKN050
     FM222000 24025G35KT P6SM VCSH SCT035 BKN050
     FM230400 24017G25KT P6SM BKN050=



000
FTUS46 KLOX 221151
TAFLAX
TAF
KLAX 221151Z 2212/2318 28012KT P6SM SCT080 SCT180
     FM221400 25008KT P6SM VCSH BKN040 BKN080
     FM221800 25008KT P6SM VCSH SCT025 OVC035
     FM222100 25015G20KT P6SM BKN040
     FM230400 27012KT P6SM BKN035
     FM230900 28007KT P6SM BKN025
     FM231300 23005KT P6SM BKN015 OVC025=



000
FTUS46 KLOX 221151
TAFWJF
TAF
KWJF 221151Z 2212/2312 23015G22KT P6SM SCT025 BKN050
     FM222000 24025G35KT P6SM VCSH SCT035 BKN050
     FM230400 24017G25KT P6SM BKN050=



000
FTUS46 KLOX 221151
TAFVNY
TAF
KVNY 221151Z 2212/2312 VRB03KT P6SM BKN025 OVC060
     FM221400 VRB03KT P6SM VCSH BKN025 BKN040
     FM221800 17010KT P6SM VCSH SCT025 BKN040
     FM222200 18010KT P6SM BKN050
     FM230300 17007KT P6SM BKN025
     FM231000 13006KT P6SM OVC025=



000
FTUS46 KLOX 221151
TAFPRB
TAF
KPRB 221151Z 2212/2312 VRB03KT P6SM OVC035
     FM221400 VRB03KT P6SM VCSH BKN025 OVC040
     FM221700 21008KT P6SM VCSH BKN035 OVC050
     FM222100 22015G20KT P6SM SCT035 BKN050
     FM230200 30012KT P6SM BKN050
     FM230700 30006KT P6SM OVC040=



000
FTUS46 KLOX 221151
TAFLGB
TAF
KLGB 221151Z 2212/2312 27008KT P6SM BKN070
     FM221330 27008KT P6SM VCSH BKN025 OVC050
     FM221800 22008KT P6SM VCSH SCT025 OVC035
     FM222100 25015G20KT P6SM BKN040
     FM230400 27010KT P6SM BKN035
     FM230700 VRB04KT P6SM OVC015=



000
FTUS46 KLOX 221151
TAFSBP
TAF
KSBP 221151Z 2212/2312 VRB03KT P6SM SCT012 BKN025
     FM221400 VRB03KT P6SM VCSH BKN015 OVC030
     FM221800 31008KT P6SM VCSH BKN035 OVC050
     FM222200 31015G22KT P6SM SCT035 BKN050
     FM230300 31010KT P6SM BKN025
     FM230900 VRB03KT P6SM OVC015=



000
FTUS46 KLOX 221151
TAFSBA
TAF
KSBA 221151Z 2212/2312 VRB03KT P6SM BKN080 BKN120
     FM221500 VRB03KT P6SM VCSH BKN025 OVC050
     FM221700 19007KT P6SM VCSH SCT025 BKN050
     FM222000 26015G20KT P6SM BKN050 WS010/34025KT
     FM230200 29009KT P6SM BKN050 WS010/35030KT
     FM230500 VRB03KT P6SM SCT100
     FM231000 06006KT P6SM BKN020=



000
FTUS46 KLOX 221151
TAFLAX
TAF
KLAX 221151Z 2212/2318 28012KT P6SM SCT080 SCT180
     FM221400 25008KT P6SM VCSH BKN040 BKN080
     FM221800 25008KT P6SM VCSH SCT025 OVC035
     FM222100 25015G20KT P6SM BKN040
     FM230400 27012KT P6SM BKN035
     FM230900 28007KT P6SM BKN025
     FM231300 23005KT P6SM BKN015 OVC025=



000
FTUS46 KLOX 221151
TAFVNY
TAF
KVNY 221151Z 2212/2312 VRB03KT P6SM BKN025 OVC060
     FM221400 VRB03KT P6SM VCSH BKN025 BKN040
     FM221800 17010KT P6SM VCSH SCT025 BKN040
     FM222200 18010KT P6SM BKN050
     FM230300 17007KT P6SM BKN025
     FM231000 13006KT P6SM OVC025=



000
FTUS46 KLOX 221151
TAFWJF
TAF
KWJF 221151Z 2212/2312 23015G22KT P6SM SCT025 BKN050
     FM222000 24025G35KT P6SM VCSH SCT035 BKN050
     FM230400 24017G25KT P6SM BKN050=



000
FTUS46 KLOX 221151
TAFBUR
TAF
KBUR 221151Z 2212/2312 VRB03KT P6SM BKN025 OVC060
     FM221400 VRB03KT P6SM VCSH BKN025 BKN040
     FM221800 17010KT P6SM VCSH SCT025 BKN040
     FM222200 17012KT P6SM BKN050
     FM230300 17007KT P6SM BKN025
     FM231000 14006KT P6SM OVC025=



000
FTUS46 KLOX 221151
TAFPMD
TAF
KPMD 221151Z 2212/2312 23015G22KT P6SM SCT025 BKN050
     FM222000 24025G35KT P6SM VCSH SCT035 BKN050
     FM230400 24017G25KT P6SM BKN050=



000
FTUS46 KLOX 221151
TAFSMX
TAF
KSMX 221151Z 2212/2312 VRB03KT 5SM BR BKN008 BKN020 OVC030
     FM221300 VRB03KT P6SM VCSH BKN008 OVC030
     FM221800 30007KT P6SM VCSH BKN015 OVC040
     FM222100 30015G22KT P6SM SCT035 BKN050
     FM230300 30010KT P6SM BKN025
     FM230700 VRB03KT P6SM OVC015=



000
FTUS46 KLOX 220931 AAA
TAFLAX
TAF AMD
KLAX 220931Z 2210/2312 27011KT P6SM SCT025 SCT080 BKN180
     FM221200 25008KT P6SM VCSH BKN025 BKN060
     FM221800 25008KT P6SM VCSH SCT025 OVC035
     FM222100 25015G20KT P6SM BKN040
     FM230400 27012KT P6SM BKN035
     FM230900 28007KT P6SM BKN025=



000
FTUS46 KLOX 220543
TAFPMD
TAF
KPMD 220543Z 2206/2306 23015G22KT P6SM SCT025 BKN050
     FM222000 24025G35KT P6SM VCSH SCT035 BKN050
     FM230400 24017G25KT P6SM BKN050=



000
FTUS46 KLOX 220543
TAFPRB
TAF
KPRB 220543Z 2206/2306 19006KT P6SM BKN035 BKN070
     FM221200 VRB03KT P6SM VCSH BKN025 OVC040
     FM221700 21008KT P6SM VCSH BKN035 OVC050
     FM222100 22015G20KT P6SM SCT035 BKN050
     FM230200 30012KT P6SM BKN050=



000
FTUS46 KLOX 220543
TAFLGB
TAF
KLGB 220543Z 2206/2306 26007KT P6SM SCT025 BKN100
     FM221200 VRB03KT P6SM VCSH BKN025 OVC050
     FM221800 22008KT P6SM VCSH SCT025 OVC035
     FM222100 25015G20KT P6SM BKN040
     FM230400 27010KT P6SM BKN035=



000
FTUS46 KLOX 220543
TAFSBP
TAF
KSBP 220543Z 2206/2306 32006KT P6SM BKN035 BKN070
     FM221200 VRB03KT P6SM VCSH BKN025 OVC035
     FM221800 31008KT P6SM VCSH BKN035 OVC050
     FM222200 31015G22KT P6SM SCT035 BKN050
     FM230300 31010KT P6SM BKN025=



000
FTUS46 KLOX 220543
TAFBUR
TAF
KBUR 220543Z 2206/2306 15007KT P6SM SCT025 BKN045
     FM221200 15007KT P6SM VCSH BKN025 BKN040
     FM221800 17010KT P6SM VCSH SCT025 BKN040
     FM222200 17012KT P6SM BKN050
     FM230300 17007KT P6SM BKN025=



000
FTUS46 KLOX 220543
TAFSBA
TAF
KSBA 220543Z 2206/2306 32006KT P6SM SCT050 BKN120
     FM221200 VRB03KT P6SM VCSH BKN025 BKN050
     FM221700 19007KT P6SM VCSH SCT025 BKN050
     FM222000 26015G20KT P6SM BKN050
     FM230200 29009KT P6SM BKN050=



000
FTUS46 KLOX 220543
TAFSMX
TAF
KSMX 220543Z 2206/2306 30006KT P6SM SCT015 OVC025
     FM221200 VRB03KT P6SM VCSH BKN025 OVC050
     FM221800 30007KT P6SM VCSH BKN035 OVC050
     FM222100 30015G22KT P6SM SCT035 BKN050
     FM230300 30010KT P6SM BKN025=



000
FTUS46 KLOX 220543
TAFLAX
TAF
KLAX 220543Z 2206/2312 26012KT P6SM SCT025 BKN100
     FM221200 25008KT P6SM VCSH BKN025 OVC050
     FM221800 25008KT P6SM VCSH SCT025 OVC035
     FM222100 25015G20KT P6SM BKN040
     FM230400 27012KT P6SM BKN035
     FM230900 28007KT P6SM BKN025=



000
FTUS46 KLOX 220543
TAFBUR
TAF
KBUR 220543Z 2206/2306 15007KT P6SM SCT025 BKN045
     FM221200 15007KT P6SM VCSH BKN025 BKN040
     FM221800 17010KT P6SM VCSH SCT025 BKN040
     FM222200 17012KT P6SM BKN050
     FM230300 17007KT P6SM BKN025=



000
FTUS46 KLOX 220543
TAFSMX
TAF
KSMX 220543Z 2206/2306 30006KT P6SM SCT015 OVC025
     FM221200 VRB03KT P6SM VCSH BKN025 OVC050
     FM221800 30007KT P6SM VCSH BKN035 OVC050
     FM222100 30015G22KT P6SM SCT035 BKN050
     FM230300 30010KT P6SM BKN025=



000
FTUS46 KLOX 220543
TAFVNY
TAF
KVNY 220543Z 2206/2306 13007KT P6SM SCT025 BKN045
     FM221200 13007KT P6SM VCSH BKN025 BKN040
     FM221800 14010KT P6SM VCSH SCT025 BKN040
     FM222200 14012KT P6SM BKN050
     FM230300 14007KT P6SM BKN025=



000
FTUS46 KLOX 220543
TAFWJF
TAF
KWJF 220543Z 2206/2306 23015G22KT P6SM SCT025 BKN050
     FM222000 24025G35KT P6SM VCSH SCT035 BKN050
     FM230400 24017G25KT P6SM BKN050=



000
FTUS46 KLOX 220543
TAFSBP
TAF
KSBP 220543Z 2206/2306 32006KT P6SM BKN035 BKN070
     FM221200 VRB03KT P6SM VCSH BKN025 OVC035
     FM221800 31008KT P6SM VCSH BKN035 OVC050
     FM222200 31015G22KT P6SM SCT035 BKN050
     FM230300 31010KT P6SM BKN025=



000
FTUS46 KLOX 220543
TAFVNY
TAF
KVNY 220543Z 2206/2306 13007KT P6SM SCT025 BKN045
     FM221200 13007KT P6SM VCSH BKN025 BKN040
     FM221800 14010KT P6SM VCSH SCT025 BKN040
     FM222200 14012KT P6SM BKN050
     FM230300 14007KT P6SM BKN025=



000
FTUS46 KLOX 220543
TAFLAX
TAF
KLAX 220543Z 2206/2312 26012KT P6SM SCT025 BKN100
     FM221200 25008KT P6SM VCSH BKN025 OVC050
     FM221800 25008KT P6SM VCSH SCT025 OVC035
     FM222100 25015G20KT P6SM BKN040
     FM230400 27012KT P6SM BKN035
     FM230900 28007KT P6SM BKN025=



000
FTUS46 KLOX 220543
TAFWJF
TAF
KWJF 220543Z 2206/2306 23015G22KT P6SM SCT025 BKN050
     FM222000 24025G35KT P6SM VCSH SCT035 BKN050
     FM230400 24017G25KT P6SM BKN050=



000
FTUS46 KLOX 220543
TAFPMD
TAF
KPMD 220543Z 2206/2306 23015G22KT P6SM SCT025 BKN050
     FM222000 24025G35KT P6SM VCSH SCT035 BKN050
     FM230400 24017G25KT P6SM BKN050=



000
FTUS46 KLOX 220543
TAFPRB
TAF
KPRB 220543Z 2206/2306 19006KT P6SM BKN035 BKN070
     FM221200 VRB03KT P6SM VCSH BKN025 OVC040
     FM221700 21008KT P6SM VCSH BKN035 OVC050
     FM222100 22015G20KT P6SM SCT035 BKN050
     FM230200 30012KT P6SM BKN050=



000
FTUS46 KLOX 220543
TAFLGB
TAF
KLGB 220543Z 2206/2306 26007KT P6SM SCT025 BKN100
     FM221200 VRB03KT P6SM VCSH BKN025 OVC050
     FM221800 22008KT P6SM VCSH SCT025 OVC035
     FM222100 25015G20KT P6SM BKN040
     FM230400 27010KT P6SM BKN035=



000
FTUS46 KLOX 220543
TAFSBA
TAF
KSBA 220543Z 2206/2306 32006KT P6SM SCT050 BKN120
     FM221200 VRB03KT P6SM VCSH BKN025 BKN050
     FM221700 19007KT P6SM VCSH SCT025 BKN050
     FM222000 26015G20KT P6SM BKN050
     FM230200 29009KT P6SM BKN050=



000
FTUS46 KLOX 220304 AAA
TAFSBA
TAF AMD
KSBA 220304Z 2203/2224 27014G22KT P6SM FEW025 SCT050
     FM220400 32006KT P6SM FEW050
     FM220800 VRB03KT P6SM VCSH BKN025 BKN050
     FM221000 12004KT P6SM -SHRA BKN025 OVC050
     FM221700 VRB03KT P6SM VCSH SCT025 BKN050
     FM222000 26015G25KT P6SM FEW025 SCT050=



000
FTUS46 KLOX 220304 AAA
TAFSBA
TAF AMD
KSBA 220304Z 2203/2224 27014G22KT P6SM FEW025 SCT050
     FM220400 32006KT P6SM FEW050
     FM220800 VRB03KT P6SM VCSH BKN025 BKN050
     FM221000 12004KT P6SM -SHRA BKN025 OVC050
     FM221700 VRB03KT P6SM VCSH SCT025 BKN050
     FM222000 26015G25KT P6SM FEW025 SCT050=



000
FTUS46 KLOX 220302 AAA
TAFLAX
TAF AMD
KLAX 220302Z 2203/2306 26010KT P6SM SCT025 SCT050
     FM221000 22006KT P6SM VCSH BKN025 BKN050
     FM221400 24010KT P6SM -SHRA BKN025 OVC050
     FM222100 25014G20KT P6SM VCSH BKN025 BKN050
     FM230400 26010KT P6SM SCT025 SCT050=



000
FTUS46 KLOX 220202 AAA
TAFPMD
TAF AMD
KPMD 220202Z 2202/2224 23015G20KT P6SM VCSH SCT025 BKN050
     FM220900 23013KT P6SM -SHRA BKN025 OVC050
     FM221400 22016G24KT P6SM VCSH BKN035 BKN070
     FM222000 23021G31KT P6SM SCT035 BKN070=



000
FTUS46 KLOX 220202 AAA
TAFLGB
TAF AMD
KLGB 220202Z 2202/2224 29010KT P6SM FEW050
     FM221100 15006KT P6SM VCSH BKN025 BKN050
     FM221500 17008KT P6SM -SHRA BKN025 OVC050
     FM222100 19010KT P6SM VCSH BKN025 BKN050=



000
FTUS46 KLOX 220201 AAA
TAFSMX
TAF AMD
KSMX 220201Z 2202/2224 30006KT P6SM VCSH BKN035 BKN070
     FM221000 VRB03KT P6SM -SHRA BKN025 OVC045
     FM221700 30006KT P6SM VCSH BKN025 OVC050
     FM222100 30012G20KT P6SM SCT025 BKN050=



000
FTUS46 KLOX 220201 AAA
TAFSBP
TAF AMD
KSBP 220201Z 2202/2224 32006KT P6SM VCSH BKN035 BKN070
     FM221000 VRB03KT P6SM -SHRA BKN025 OVC045
     FM221700 31006KT P6SM VCSH BKN025 OVC050
     FM222100 31010G18KT P6SM SCT025 BKN050=



000
FTUS46 KLOX 212352
TAFVNY
TAF
KVNY 212352Z 2200/2224 16008KT P6SM SCT045
     FM220400 15005KT P6SM SCT025 BKN045
     FM220800 VRB03KT P6SM VCSH BKN025 BKN040
     FM221100 VRB03KT P6SM -SHRA BKN025 OVC040
     FM221700 16010KT P6SM VCSH BKN025 BKN040=



000
FTUS46 KLOX 212352
TAFLGB
TAF
KLGB 212352Z 2200/2224 21009KT P6SM FEW025 SCT050
     FM220300 29010KT P6SM FEW050
     FM221100 15006KT P6SM VCSH BKN025 BKN050
     FM221500 17008KT P6SM -SHRA BKN025 OVC050
     FM222100 19010KT P6SM VCSH BKN025 BKN050=



000
FTUS46 KLOX 212352
TAFLAX
TAF
KLAX 212352Z 2200/2306 25012G20KT P6SM SCT025 SCT050
     FM220400 26010KT P6SM SCT025 SCT050
     FM221000 22006KT P6SM VCSH BKN025 BKN050
     FM221400 24010KT P6SM -SHRA BKN025 OVC050
     FM222100 25014G20KT P6SM VCSH BKN025 BKN050
     FM230400 26010KT P6SM SCT025 SCT050=



000
FTUS46 KLOX 212352
TAFSBP
TAF
KSBP 212352Z 2200/2224 32014KT P6SM BKN050 BKN090
     FM220300 32006KT P6SM VCSH BKN035 BKN070
     FM221000 VRB03KT P6SM -SHRA BKN025 OVC045
     FM221700 31006KT P6SM VCSH BKN025 OVC050
     FM222100 31010G18KT P6SM SCT025 BKN050=



000
FTUS46 KLOX 212352
TAFSBA
TAF
KSBA 212352Z 2200/2224 27014G22KT P6SM FEW025 SCT050
     FM220300 32006KT P6SM FEW050
     FM220800 VRB03KT P6SM VCSH BKN025 BKN050
     FM221000 12004KT P6SM -SHRA BKN025 OVC050
     FM221700 VRB03KT P6SM VCSH SCT025 BKN050
     FM222000 26015G25KT P6SM FEW025 SCT050=



000
FTUS46 KLOX 212352
TAFBUR
TAF
KBUR 212352Z 2200/2224 16008KT P6SM SCT045
     FM220400 15005KT P6SM SCT025 BKN045
     FM220800 VRB03KT P6SM VCSH BKN025 BKN040
     FM221100 VRB03KT P6SM -SHRA BKN025 OVC040
     FM221700 16010KT P6SM VCSH BKN025 BKN040=



000
FTUS46 KLOX 212352
TAFWJF
TAF
KWJF 212352Z 2200/2224 23022G30KT P6SM SCT150
     FM220300 23017G22KT P6SM VCSH SCT025 BKN050
     FM220800 23018KT P6SM -SHRA BKN025 OVC050
     FM221300 23018G26KT P6SM VCSH BKN035 BKN070
     FM222000 24024G34KT P6SM SCT035 BKN070=



000
FTUS46 KLOX 212352
TAFPRB
TAF
KPRB 212352Z 2200/2224 20014KT P6SM SCT050 SCT090
     FM220400 19006KT P6SM VCSH BKN035 BKN070
     FM221200 VRB03KT P6SM -SHRA BKN020 OVC040
     FM221700 21008KT P6SM VCSH BKN025 OVC050
     FM222100 21014G20KT P6SM SCT025 BKN050=



000
FTUS46 KLOX 212352
TAFPMD
TAF
KPMD 212352Z 2200/2224 23022G30KT P6SM SCT150
     FM220300 23015G20KT P6SM VCSH SCT025 BKN050
     FM220900 23013KT P6SM -SHRA BKN025 OVC050
     FM221400 22016G24KT P6SM VCSH BKN035 BKN070
     FM222000 23021G31KT P6SM SCT035 BKN070=



000
FTUS46 KLOX 212352
TAFSMX
TAF
KSMX 212352Z 2200/2224 30014G20KT P6SM BKN050 BKN090
     FM220300 30006KT P6SM VCSH BKN035 BKN070
     FM221000 VRB03KT P6SM -SHRA BKN025 OVC045
     FM221700 30006KT P6SM VCSH BKN025 OVC050
     FM222100 30012G20KT P6SM SCT025 BKN050=



000
FTUS46 KLOX 212352
TAFPMD
TAF
KPMD 212352Z 2200/2224 23022G30KT P6SM SCT150
     FM220300 23015G20KT P6SM VCSH SCT025 BKN050
     FM220900 23013KT P6SM -SHRA BKN025 OVC050
     FM221400 22016G24KT P6SM VCSH BKN035 BKN070
     FM222000 23021G31KT P6SM SCT035 BKN070=



000
FTUS46 KLOX 212352
TAFSBA
TAF
KSBA 212352Z 2200/2224 27014G22KT P6SM FEW025 SCT050
     FM220300 32006KT P6SM FEW050
     FM220800 VRB03KT P6SM VCSH BKN025 BKN050
     FM221000 12004KT P6SM -SHRA BKN025 OVC050
     FM221700 VRB03KT P6SM VCSH SCT025 BKN050
     FM222000 26015G25KT P6SM FEW025 SCT050=



000
FTUS46 KLOX 212352
TAFLAX
TAF
KLAX 212352Z 2200/2306 25012G20KT P6SM SCT025 SCT050
     FM220400 26010KT P6SM SCT025 SCT050
     FM221000 22006KT P6SM VCSH BKN025 BKN050
     FM221400 24010KT P6SM -SHRA BKN025 OVC050
     FM222100 25014G20KT P6SM VCSH BKN025 BKN050
     FM230400 26010KT P6SM SCT025 SCT050=



000
FTUS46 KLOX 212352
TAFSMX
TAF
KSMX 212352Z 2200/2224 30014G20KT P6SM BKN050 BKN090
     FM220300 30006KT P6SM VCSH BKN035 BKN070
     FM221000 VRB03KT P6SM -SHRA BKN025 OVC045
     FM221700 30006KT P6SM VCSH BKN025 OVC050
     FM222100 30012G20KT P6SM SCT025 BKN050=



000
FTUS46 KLOX 212352
TAFVNY
TAF
KVNY 212352Z 2200/2224 16008KT P6SM SCT045
     FM220400 15005KT P6SM SCT025 BKN045
     FM220800 VRB03KT P6SM VCSH BKN025 BKN040
     FM221100 VRB03KT P6SM -SHRA BKN025 OVC040
     FM221700 16010KT P6SM VCSH BKN025 BKN040=



000
FTUS46 KLOX 212352
TAFWJF
TAF
KWJF 212352Z 2200/2224 23022G30KT P6SM SCT150
     FM220300 23017G22KT P6SM VCSH SCT025 BKN050
     FM220800 23018KT P6SM -SHRA BKN025 OVC050
     FM221300 23018G26KT P6SM VCSH BKN035 BKN070
     FM222000 24024G34KT P6SM SCT035 BKN070=



000
FTUS46 KLOX 212352
TAFBUR
TAF
KBUR 212352Z 2200/2224 16008KT P6SM SCT045
     FM220400 15005KT P6SM SCT025 BKN045
     FM220800 VRB03KT P6SM VCSH BKN025 BKN040
     FM221100 VRB03KT P6SM -SHRA BKN025 OVC040
     FM221700 16010KT P6SM VCSH BKN025 BKN040=



000
FTUS46 KLOX 212352
TAFSBP
TAF
KSBP 212352Z 2200/2224 32014KT P6SM BKN050 BKN090
     FM220300 32006KT P6SM VCSH BKN035 BKN070
     FM221000 VRB03KT P6SM -SHRA BKN025 OVC045
     FM221700 31006KT P6SM VCSH BKN025 OVC050
     FM222100 31010G18KT P6SM SCT025 BKN050=



000
FTUS46 KLOX 212352
TAFPRB
TAF
KPRB 212352Z 2200/2224 20014KT P6SM SCT050 SCT090
     FM220400 19006KT P6SM VCSH BKN035 BKN070
     FM221200 VRB03KT P6SM -SHRA BKN020 OVC040
     FM221700 21008KT P6SM VCSH BKN025 OVC050
     FM222100 21014G20KT P6SM SCT025 BKN050=



000
FTUS46 KLOX 212352
TAFLGB
TAF
KLGB 212352Z 2200/2224 21009KT P6SM FEW025 SCT050
     FM220300 29010KT P6SM FEW050
     FM221100 15006KT P6SM VCSH BKN025 BKN050
     FM221500 17008KT P6SM -SHRA BKN025 OVC050
     FM222100 19010KT P6SM VCSH BKN025 BKN050=



000
FTUS46 KLOX 212047 AAA
TAFLAX
TAF AMD
KLAX 212047Z 2121/2224 25012G20KT P6SM SCT050 BKN150
     FM220500 26010KT P6SM BKN025
     FM220900 VRB03KT P6SM VCSH OVC025
     FM221700 25008KT P6SM BKN025 OVC030
     FM222100 25014KT P6SM OVC035=



000
FTUS46 KLOX 212047 AAA
TAFLAX
TAF AMD
KLAX 212047Z 2121/2224 25012G20KT P6SM SCT050 BKN150
     FM220500 26010KT P6SM BKN025
     FM220900 VRB03KT P6SM VCSH OVC025
     FM221700 25008KT P6SM BKN025 OVC030
     FM222100 25014KT P6SM OVC035=



000
FTUS46 KLOX 211731
TAFPRB
TAF
KPRB 211731Z 2118/2218 23006KT P6SM BKN035 BKN100
     FM212000 20007KT P6SM BKN040 BKN100
     FM212200 20014KT P6SM BKN050 BKN100
     FM220400 19006KT P6SM BKN050
     FM220900 VRB03KT P6SM OVC030
     FM221200 VRB03KT P6SM BKN015 OVC030=



000
FTUS46 KLOX 211731
TAFSBP
TAF
KSBP 211731Z 2118/2218 28005KT P6SM SCT025 OVC040
     FM212000 28007KT P6SM BKN040
     FM212200 30011KT P6SM BKN050
     FM220300 32006KT P6SM BKN035
     FM220600 VRB03KT P6SM BKN025
     FM221300 VRB03KT P6SM BKN015 OVC025=



000
FTUS46 KLOX 211731
TAFSMX
TAF
KSMX 211731Z 2118/2218 31004KT P6SM SCT025 BKN050
     FM212000 30008KT P6SM BKN050
     FM212200 30013KT P6SM BKN050
     FM220300 30006KT P6SM BKN035
     FM220600 VRB03KT P6SM OVC025
     FM221200 VRB03KT P6SM BKN015 OVC025=



000
FTUS46 KLOX 211731
TAFVNY
TAF
KVNY 211731Z 2118/2218 VRB05KT P6SM SCT030 BKN050
     FM212000 17007KT P6SM BKN030 BKN050
     FM212200 19010G15KT P6SM BKN050
     FM220300 22005KT P6SM BKN035
     FM220900 VRB03KT P6SM VCSH OVC025
     FM221600 VRB03KT P6SM BKN050=



000
FTUS46 KLOX 211731
TAFPMD
TAF
KPMD 211731Z 2118/2218 24015G23KT P6SM SCT100
     FM212100 23020G30KT P6SM SCT150
     FM220300 23015G23KT P6SM BKN100
     FM220900 23013KT P6SM VCSH BKN050
     FM221400 21016G22KT P6SM VCSH BKN030 OVC100=



000
FTUS46 KLOX 211731
TAFWJF
TAF
KWJF 211731Z 2118/2218 23020G25KT P6SM SCT100
     FM212100 23022G32KT P6SM SCT050
     FM220500 23015G22KT P6SM SCT050
     FM220900 23015KT P6SM VCSH BKN050
     FM221400 25015G21KT P6SM VCSH BKN030 OVC100=



000
FTUS46 KLOX 211731
TAFLGB
TAF
KLGB 211731Z 2118/2218 VRB05KT P6SM BKN040 OVC050
     FM212000 21009KT P6SM BKN050
     FM220000 29010KT P6SM BKN040
     FM220500 28006KT P6SM OVC030
     FM220900 30005KT P6SM VCSH OVC025
     FM221400 VRB03KT P6SM VCSH BKN025 OVC040=



000
FTUS46 KLOX 211731
TAFSBA
TAF
KSBA 211731Z 2118/2218 VRB05KT P6SM SCT035 BKN050
     FM212000 24009KT P6SM BKN050
     FM212100 25012G18KT P6SM BKN050
     FM220300 27004KT P6SM BKN040
     FM220600 VRB03KT P6SM OVC040
     FM221400 VRB03KT P6SM BKN025 OVC040=



000
FTUS46 KLOX 211731
TAFBUR
TAF
KBUR 211731Z 2118/2218 VRB05KT P6SM OVC040
     FM212000 18008KT P6SM BKN040
     FM220400 20006KT P6SM BKN035
     FM220900 VRB03KT P6SM VCSH OVC025
     FM221600 VRB03KT P6SM BKN050=



000
FTUS46 KLOX 211731
TAFLAX
TAF
KLAX 211731Z 2118/2224 28008KT P6SM SCT045 BKN050
     FM212000 25012G20KT P6SM BKN035
     FM220500 26010KT P6SM BKN035
     FM220900 VRB03KT P6SM VCSH OVC025
     FM221700 25008KT P6SM BKN025 OVC030
     FM222100 25014KT P6SM OVC035=



000
FTUS46 KLOX 211622 AAA
TAFVNY
TAF AMD
KVNY 211622Z 2116/2212 VRB05KT P6SM BKN020 BKN045
     FM211900 17009KT P6SM BKN030 BKN050
     FM212100 18010G17KT P6SM BKN050
     FM220400 VRB03KT P6SM BKN035
     FM220900 VRB03KT P6SM VCSH OVC025=



000
FTUS46 KLOX 211622 AAA
TAFVNY
TAF AMD
KVNY 211622Z 2116/2212 VRB05KT P6SM BKN020 BKN045
     FM211900 17009KT P6SM BKN030 BKN050
     FM212100 18010G17KT P6SM BKN050
     FM220400 VRB03KT P6SM BKN035
     FM220900 VRB03KT P6SM VCSH OVC025=



000
FTUS46 KLOX 211621 AAD
TAFLAX
TAF AMD
KLAX 211621Z 2116/2218 24005KT P6SM SCT015 BKN022 BKN150
     FM211800 24008KT P6SM BKN025 BKN150
     FM212000 25012G18KT P6SM BKN035
     FM220500 26010KT P6SM BKN035
     FM220900 VRB03KT P6SM VCSH OVC025
     FM221700 25008KT P6SM BKN035=



000
FTUS46 KLOX 211621 AAD
TAFLAX
TAF AMD
KLAX 211621Z 2116/2218 24005KT P6SM SCT015 BKN022 BKN150
     FM211800 24008KT P6SM BKN025 BKN150
     FM212000 25012G18KT P6SM BKN035
     FM220500 26010KT P6SM BKN035
     FM220900 VRB03KT P6SM VCSH OVC025
     FM221700 25008KT P6SM BKN035=



000
FTUS46 KLOX 211620 AAA
TAFSMX
TAF AMD
KSMX 211620Z 2116/2212 VRB03KT P6SM BKN040
     FM211900 29007KT P6SM BKN040
     FM212000 30012KT P6SM BKN035
     FM220300 30008KT P6SM BKN035
     FM220600 VRB03KT P6SM OVC025=



000
FTUS46 KLOX 211618 AAB
TAFPRB
TAF AMD
KPRB 211618Z 2116/2212 VRB05KT P6SM BKN040
     FM211800 21008KT P6SM SCT025 BKN050
     FM212000 20015G25KT P6SM SCT040 BKN050
     FM220400 28010KT P6SM BKN050=



000
FTUS46 KLOX 211618 AAA
TAFSBP
TAF AMD
KSBP 211618Z 2116/2212 VRB03KT P6SM SCT025 OVC040
     FM211700 28005KT P6SM OVC035
     FM212000 30012KT P6SM BKN035
     FM220300 30008KT P6SM BKN035
     FM220600 VRB03KT P6SM OVC025=



000
FTUS46 KLOX 211453 AAC
TAFLAX
TAF AMD
KLAX 211453Z 2115/2218 VRB03KT P6SM BKN015 BKN150
     FM211800 23006KT P6SM SCT020 BKN150
     FM212000 25015G20KT P6SM BKN035
     FM220500 26010KT P6SM BKN035
     FM220900 VRB03KT P6SM VCSH OVC025
     FM221700 25008KT P6SM BKN035=



000
FTUS46 KLOX 211303 AAA
TAFSBA
TAF AMD
KSBA 211303Z 2113/2212 11006KT P6SM BKN040
     FM211800 19008KT P6SM SCT025 BKN040
     FM212100 25012KT P6SM SCT025 BKN040
     FM220300 VRB03KT P6SM BKN040
     FM220700 VRB03KT P6SM OVC025=



000
FTUS46 KLOX 211302 AAA
TAFPRB
TAF AMD
KPRB 211302Z 2113/2212 VRB03KT P6SM OVC025
     FM211800 21008KT P6SM SCT025 BKN050
     FM212000 20015G25KT P6SM SCT040 BKN050
     FM220400 28010KT P6SM BKN050=



000
FTUS46 KLOX 211301 AAB
TAFLAX
TAF AMD
KLAX 211301Z 2113/2218 VRB03KT P6SM BKN018 BKN035
     FM211600 VRB03KT P6SM SCT020 BKN035
     FM212000 25015G20KT P6SM BKN035
     FM220500 26010KT P6SM BKN035
     FM220900 VRB03KT P6SM VCSH OVC025
     FM221700 25008KT P6SM BKN035=



000
FTUS46 KLOX 211149 AAA
TAFLAX
TAF AMD
KLAX 211149Z 2112/2218 VRB03KT P6SM SCT015 BKN035
     FM212000 25015G20KT P6SM BKN035
     FM220500 26010KT P6SM BKN035
     FM220900 VRB03KT P6SM VCSH OVC025
     FM221700 25008KT P6SM BKN035=



000
FTUS46 KLOX 211149 AAA
TAFLAX
TAF AMD
KLAX 211149Z 2112/2218 VRB03KT P6SM SCT015 BKN035
     FM212000 25015G20KT P6SM BKN035
     FM220500 26010KT P6SM BKN035
     FM220900 VRB03KT P6SM VCSH OVC025
     FM221700 25008KT P6SM BKN035=



000
FTUS46 KLOX 211121
TAFPMD
TAF
KPMD 211121Z 2112/2212 23010KT P6SM SCT250
     FM211800 22015G25KT P6SM SCT050
     FM212100 23022G32KT P6SM SCT050
     FM220500 23015G25KT P6SM SCT050
     FM220900 23015KT P6SM VCSH BKN050=



000
FTUS46 KLOX 211121
TAFSBA
TAF
KSBA 211121Z 2112/2212 11006KT P6SM BKN100
     FM211800 19008KT P6SM SCT025 BKN040
     FM212100 25012KT P6SM SCT025 BKN040
     FM220300 VRB03KT P6SM BKN040
     FM220700 VRB03KT P6SM OVC025=



000
FTUS46 KLOX 211121
TAFSBA
TAF
KSBA 211121Z 2112/2212 11006KT P6SM BKN100
     FM211800 19008KT P6SM SCT025 BKN040
     FM212100 25012KT P6SM SCT025 BKN040
     FM220300 VRB03KT P6SM BKN040
     FM220700 VRB03KT P6SM OVC025=



000
FTUS46 KLOX 211121
TAFPRB
TAF
KPRB 211121Z 2112/2212 VRB03KT P6SM OVC015
     FM211600 VRB03KT P6SM BKN020
     FM211800 21008KT P6SM SCT025 BKN050
     FM212000 20015G25KT P6SM SCT040 BKN050
     FM220400 28010KT P6SM BKN050=



000
FTUS46 KLOX 211121
TAFWJF
TAF
KWJF 211121Z 2112/2212 23012KT P6SM SCT250
     FM211800 23015G25KT P6SM SCT050
     FM212100 23022G32KT P6SM SCT050
     FM220500 23015G25KT P6SM SCT050
     FM220900 23015KT P6SM VCSH BKN050=



000
FTUS46 KLOX 211121
TAFSMX
TAF
KSMX 211121Z 2112/2212 VRB03KT P6SM OVC025
     FM211700 28008KT P6SM OVC035
     FM212000 29015KT P6SM BKN035
     FM220300 30008KT P6SM BKN035
     FM220600 VRB03KT P6SM OVC025=



000
FTUS46 KLOX 211121
TAFSBP
TAF
KSBP 211121Z 2112/2212 VRB03KT P6SM OVC025
     FM211700 28008KT P6SM OVC035
     FM212000 29015KT P6SM BKN035
     FM220300 30008KT P6SM BKN035
     FM220600 VRB03KT P6SM OVC025=



000
FTUS46 KLOX 211121
TAFVNY
TAF
KVNY 211121Z 2112/2212 14006KT P6SM BKN035
     FM211800 14010KT P6SM BKN035
     FM220400 VRB03KT P6SM BKN035
     FM220900 VRB03KT P6SM VCSH OVC025=



000
FTUS46 KLOX 211121
TAFVNY
TAF
KVNY 211121Z 2112/2212 14006KT P6SM BKN035
     FM211800 14010KT P6SM BKN035
     FM220400 VRB03KT P6SM BKN035
     FM220900 VRB03KT P6SM VCSH OVC025=



000
FTUS46 KLOX 211121
TAFBUR
TAF
KBUR 211121Z 2112/2212 16006KT P6SM BKN035
     FM211800 17010KT P6SM BKN035
     FM220400 VRB03KT P6SM BKN035
     FM220900 VRB03KT P6SM VCSH OVC025=



000
FTUS46 KLOX 211121
TAFLAX
TAF
KLAX 211121Z 2112/2218 VRB03KT P6SM BKN015 OVC035
     FM211500 VRB03KT P6SM SCT020 BKN035
     FM212000 25015G20KT P6SM BKN035
     FM220500 26010KT P6SM BKN035
     FM220900 VRB03KT P6SM VCSH OVC025
     FM221700 25008KT P6SM BKN035=



000
FTUS46 KLOX 211121
TAFLGB
TAF
KLGB 211121Z 2112/2212 VRB03KT P6SM SCT020 OVC035
     FM211800 19009KT P6SM BKN040
     FM220000 28010KT P6SM BKN040
     FM220900 VRB03KT P6SM VCSH OVC025=



000
FTUS46 KLOX 211121
TAFPRB
TAF
KPRB 211121Z 2112/2212 VRB03KT P6SM OVC015
     FM211600 VRB03KT P6SM BKN020
     FM211800 21008KT P6SM SCT025 BKN050
     FM212000 20015G25KT P6SM SCT040 BKN050
     FM220400 28010KT P6SM BKN050=



000
FTUS46 KLOX 211121
TAFPMD
TAF
KPMD 211121Z 2112/2212 23010KT P6SM SCT250
     FM211800 22015G25KT P6SM SCT050
     FM212100 23022G32KT P6SM SCT050
     FM220500 23015G25KT P6SM SCT050
     FM220900 23015KT P6SM VCSH BKN050=



000
FTUS46 KLOX 211121
TAFWJF
TAF
KWJF 211121Z 2112/2212 23012KT P6SM SCT250
     FM211800 23015G25KT P6SM SCT050
     FM212100 23022G32KT P6SM SCT050
     FM220500 23015G25KT P6SM SCT050
     FM220900 23015KT P6SM VCSH BKN050=



000
FTUS46 KLOX 211121
TAFLAX
TAF
KLAX 211121Z 2112/2218 VRB03KT P6SM BKN015 OVC035
     FM211500 VRB03KT P6SM SCT020 BKN035
     FM212000 25015G20KT P6SM BKN035
     FM220500 26010KT P6SM BKN035
     FM220900 VRB03KT P6SM VCSH OVC025
     FM221700 25008KT P6SM BKN035=



000
FTUS46 KLOX 211121
TAFSBP
TAF
KSBP 211121Z 2112/2212 VRB03KT P6SM OVC025
     FM211700 28008KT P6SM OVC035
     FM212000 29015KT P6SM BKN035
     FM220300 30008KT P6SM BKN035
     FM220600 VRB03KT P6SM OVC025=



000
FTUS46 KLOX 211121
TAFLGB
TAF
KLGB 211121Z 2112/2212 VRB03KT P6SM SCT020 OVC035
     FM211800 19009KT P6SM BKN040
     FM220000 28010KT P6SM BKN040
     FM220900 VRB03KT P6SM VCSH OVC025=



000
FTUS46 KLOX 211121
TAFSMX
TAF
KSMX 211121Z 2112/2212 VRB03KT P6SM OVC025
     FM211700 28008KT P6SM OVC035
     FM212000 29015KT P6SM BKN035
     FM220300 30008KT P6SM BKN035
     FM220600 VRB03KT P6SM OVC025=



000
FTUS46 KLOX 211121
TAFBUR
TAF
KBUR 211121Z 2112/2212 16006KT P6SM BKN035
     FM211800 17010KT P6SM BKN035
     FM220400 VRB03KT P6SM BKN035
     FM220900 VRB03KT P6SM VCSH OVC025=



000
FTUS46 KLOX 210917 AAA
TAFLAX
TAF AMD
KLAX 210917Z 2109/2212 27009KT P6SM SCT035
     FM211200 26006KT P6SM SCT020 OVC035
     FM211900 25015G20KT P6SM BKN035
     FM220500 26010KT P6SM BKN035
     FM220900 VRB03KT P6SM BKN030=



000
FTUS46 KLOX 210534
TAFLAX
TAF
KLAX 210534Z 2106/2212 27009KT P6SM FEW020 SCT250
     FM210900 12006KT P6SM SCT020 OVC035
     FM211600 26008KT P6SM BKN035
     FM211900 25015G20KT P6SM BKN035
     FM220500 26010KT P6SM BKN035
     FM220900 VRB03KT P6SM BKN030=



000
FTUS46 KLOX 210534
TAFLGB
TAF
KLGB 210534Z 2106/2206 19006KT P6SM BKN035
     FM211800 19012KT P6SM BKN035
     FM220100 28010KT P6SM BKN035=



000
FTUS46 KLOX 210534
TAFBUR
TAF
KBUR 210534Z 2106/2206 16006KT P6SM BKN025
     FM211800 17010KT P6SM BKN035
     FM220400 VRB03KT P6SM BKN035=



000
FTUS46 KLOX 210534
TAFSMX
TAF
KSMX 210534Z 2106/2206 VRB03KT P6SM OVC018
     FM211300 16006KT 6SM -DZ BR OVC015
     FM211700 28008KT P6SM BKN015 OVC030
     FM212000 29015KT P6SM BKN030
     FM220300 30008KT P6SM BKN030=



000
FTUS46 KLOX 210534
TAFPMD
TAF
KPMD 210534Z 2106/2206 23010KT P6SM SCT250
     FM211800 22015G25KT P6SM SCT050
     FM212100 23020G30KT P6SM SCT050
     FM220400 23015KT P6SM SCT050=



000
FTUS46 KLOX 210534
TAFVNY
TAF
KVNY 210534Z 2106/2206 14006KT P6SM BKN025
     FM211800 17010KT P6SM BKN035
     FM220400 VRB03KT P6SM BKN035=



000
FTUS46 KLOX 210534
TAFWJF
TAF
KWJF 210534Z 2106/2206 23010KT P6SM SCT250
     FM211800 22015G25KT P6SM SCT050
     FM212100 23020G30KT P6SM SCT050
     FM220400 23015KT P6SM SCT050=



000
FTUS46 KLOX 210534
TAFPRB
TAF
KPRB 210534Z 2106/2206 20007KT P6SM SCT010 SCT250
     FM210700 29009KT P6SM OVC015
     FM211300 VRB03KT 6SM -DZ BR BKN010 OVC020
     FM211600 VRB03KT P6SM BKN020
     FM211800 21008KT P6SM SCT025 BKN050
     FM212000 20015G25KT P6SM SCT040 BKN050
     FM220400 28010KT P6SM BKN050=



000
FTUS46 KLOX 210534
TAFSBA
TAF
KSBA 210534Z 2106/2206 VRB03KT P6SM SCT250
     FM211200 11006KT P6SM BKN020
     FM211800 19008KT P6SM SCT025 BKN035
     FM212100 25012KT P6SM SCT025 BKN040
     FM220300 VRB03KT P6SM BKN025=



000
FTUS46 KLOX 210534
TAFSBP
TAF
KSBP 210534Z 2106/2206 31007KT P6SM OVC020
     FM211300 16006KT 6SM -DZ BR BKN015 OVC020
     FM211700 28008KT P6SM BKN015 OVC030
     FM212000 29015KT P6SM BKN030
     FM220300 30008KT P6SM BKN030=



000
FTUS46 KLOX 210437 AAC
TAFWJF
TAF AMD
KWJF 210437Z 2105/2124 23014G22KT P6SM BKN250
     FM210700 24015KT P6SM SCT250
     FM211000 24010KT P6SM SCT250
     FM211800 22015G25KT P6SM FEW035 SCT050
     FM212000 22020G30KT P6SM FEW035 SCT050=



000
FTUS46 KLOX 210431 AAC
TAFPMD
TAF AMD
KPMD 210431Z 2105/2124 25014KT P6SM SCT250
     FM210600 21008KT P6SM SCT250
     FM211900 22014G22KT P6SM FEW035 SCT050
     FM212100 23020G30KT P6SM FEW035 SCT050=



000
FTUS46 KLOX 210328 AAC
TAFLGB
TAF AMD
KLGB 210328Z 2103/2124 29009KT P6SM SCT025
      TEMPO 2103/2105 BKN025
     FM210600 VRB03KT P6SM BKN020 BKN035
     FM211300 13005KT P6SM BKN027 BKN040
     FM211600 16008KT P6SM BKN035
     FM211800 19010G15KT P6SM SCT035=



000
FTUS46 KLOX 210315 AAA
TAFLAX
TAF AMD
KLAX 210315Z 2103/2206 27009KT P6SM FEW020 SCT250
     FM210700 VRB03KT P6SM SCT020 BKN035
     FM211100 10006KT P6SM BKN025 BKN040
     FM211600 26008KT P6SM BKN030
     FM211900 25014G20KT P6SM SCT035
     FM220400 26008KT P6SM SCT025=



000
FTUS46 KLOX 210306 AAC
TAFSMX
TAF AMD
KSMX 210306Z 2103/2124 31006KT P6SM BKN020
     FM210800 VRB03KT P6SM OVC015
     FM211300 16004KT 6SM -DZ BR BKN010 OVC020
     FM211600 VRB03KT P6SM BKN015 OVC030
     FM212000 29008KT P6SM BKN020 BKN040=



000
FTUS46 KLOX 210159 AAB
TAFLGB
TAF AMD
KLGB 210159Z 2102/2124 29009KT P6SM SCT025 SCT250
     FM210700 VRB03KT P6SM BKN022 BKN035
     FM211300 13005KT P6SM BKN027 BKN040
     FM211600 16008KT P6SM BKN035
     FM211800 19010G15KT P6SM SCT035=



000
FTUS46 KLOX 210159 AAB
TAFLGB
TAF AMD
KLGB 210159Z 2102/2124 29009KT P6SM SCT025 SCT250
     FM210700 VRB03KT P6SM BKN022 BKN035
     FM211300 13005KT P6SM BKN027 BKN040
     FM211600 16008KT P6SM BKN035
     FM211800 19010G15KT P6SM SCT035=



000
FTUS46 KLOX 210154 AAB
TAFSMX
TAF AMD
KSMX 210154Z 2102/2124 31014KT P6SM SCT250
     FM210300 31008KT P6SM SCT250
     FM210400 31006KT P6SM BKN020
     FM210800 VRB03KT P6SM OVC015
     FM211300 16004KT 6SM -DZ BR BKN010 OVC020
     FM211600 VRB03KT P6SM BKN015 OVC030
     FM212000 29008KT P6SM BKN020 BKN040=



000
FTUS46 KLOX 210154 AAB
TAFSMX
TAF AMD
KSMX 210154Z 2102/2124 31014KT P6SM SCT250
     FM210300 31008KT P6SM SCT250
     FM210400 31006KT P6SM BKN020
     FM210800 VRB03KT P6SM OVC015
     FM211300 16004KT 6SM -DZ BR BKN010 OVC020
     FM211600 VRB03KT P6SM BKN015 OVC030
     FM212000 29008KT P6SM BKN020 BKN040=



000
FTUS46 KLOX 210153 AAC
TAFSBP
TAF AMD
KSBP 210153Z 2102/2124 31012KT P6SM SCT250
     FM210300 31006KT P6SM BKN020
     FM210700 VRB03KT P6SM OVC015
     FM211300 16004KT 6SM -DZ BR BKN010 OVC020
     FM211600 VRB03KT P6SM BKN015 OVC030
     FM212000 27008KT P6SM BKN020 BKN040=



000
FTUS46 KLOX 210153 AAC
TAFSBP
TAF AMD
KSBP 210153Z 2102/2124 31012KT P6SM SCT250
     FM210300 31006KT P6SM BKN020
     FM210700 VRB03KT P6SM OVC015
     FM211300 16004KT 6SM -DZ BR BKN010 OVC020
     FM211600 VRB03KT P6SM BKN015 OVC030
     FM212000 27008KT P6SM BKN020 BKN040=



000
FTUS46 KLOX 210126 AAB
TAFPMD
TAF AMD
KPMD 210126Z 2101/2124 23018G26KT P6SM BKN250
     FM210300 23014KT P6SM SCT250
     FM210600 21008KT P6SM SCT250
     FM211900 22014G22KT P6SM FEW035 SCT050
     FM212100 23020G30KT P6SM FEW035 SCT050=



000
FTUS46 KLOX 210126 AAB
TAFPMD
TAF AMD
KPMD 210126Z 2101/2124 23018G26KT P6SM BKN250
     FM210300 23014KT P6SM SCT250
     FM210600 21008KT P6SM SCT250
     FM211900 22014G22KT P6SM FEW035 SCT050
     FM212100 23020G30KT P6SM FEW035 SCT050=



000
FTUS46 KLOX 210126 AAB
TAFWJF
TAF AMD
KWJF 210126Z 2101/2124 23018G28KT P6SM BKN250
     FM210300 23015KT P6SM SCT250
     FM211000 24010KT P6SM SCT250
     FM211800 22015G25KT P6SM FEW035 SCT050
     FM212000 22020G30KT P6SM FEW035 SCT050=



000
FTUS46 KLOX 210126 AAA
TAFBUR
TAF AMD
KBUR 210126Z 2101/2124 16005KT P6SM SCT250
     FM211100 VRB03KT P6SM BKN015
     FM211600 16007KT P6SM BKN020 BKN045
     FM211800 18010KT P6SM SCT025 SCT050=



000
FTUS46 KLOX 210126 AAA
TAFBUR
TAF AMD
KBUR 210126Z 2101/2124 16005KT P6SM SCT250
     FM211100 VRB03KT P6SM BKN015
     FM211600 16007KT P6SM BKN020 BKN045
     FM211800 18010KT P6SM SCT025 SCT050=



000
FTUS46 KLOX 210126 AAB
TAFWJF
TAF AMD
KWJF 210126Z 2101/2124 23018G28KT P6SM BKN250
     FM210300 23015KT P6SM SCT250
     FM211000 24010KT P6SM SCT250
     FM211800 22015G25KT P6SM FEW035 SCT050
     FM212000 22020G30KT P6SM FEW035 SCT050=



000
FTUS46 KLOX 210004 AAA
TAFSBA
TAF AMD
KSBA 210004Z 2100/2124 26012KT P6SM BKN250
     FM210200 VRB03KT P6SM SCT250
     FM210900 11003KT P6SM BKN020
     FM211300 16005KT P6SM BKN025
     FM211800 19008KT P6SM SCT025 BKN040
     FM212200 25010G16KT P6SM SCT025 BKN040=



000
FTUS46 KLOX 210004 AAA
TAFSBA
TAF AMD
KSBA 210004Z 2100/2124 26012KT P6SM BKN250
     FM210200 VRB03KT P6SM SCT250
     FM210900 11003KT P6SM BKN020
     FM211300 16005KT P6SM BKN025
     FM211800 19008KT P6SM SCT025 BKN040
     FM212200 25010G16KT P6SM SCT025 BKN040=



000
FTUS46 KLOX 210003 CCA
TAFWJF
TAF COR
KWJF 210003Z 2100/2124 23018G28KT P6SM BKN250
     FM210200 23015KT P6SM SCT250
     FM211000 24010KT P6SM SCT250
     FM211800 22015G25KT P6SM FEW035 SCT050
     FM212000 22020G30KT P6SM FEW035 SCT050=



000
FTUS46 KLOX 210003 CCA
TAFWJF
TAF COR
KWJF 210003Z 2100/2124 23018G28KT P6SM BKN250
     FM210200 23015KT P6SM SCT250
     FM211000 24010KT P6SM SCT250
     FM211800 22015G25KT P6SM FEW035 SCT050
     FM212000 22020G30KT P6SM FEW035 SCT050=



000
FTUS46 KLOX 210002 CCA
TAFPMD
TAF COR
KPMD 210002Z 2100/2124 23018G26KT P6SM BKN250
     FM210100 23014KT P6SM SCT250
     FM210600 21008KT P6SM SCT250
     FM211900 22014G22KT P6SM FEW035 SCT050
     FM212100 23020G30KT P6SM FEW035 SCT050=



000
FTUS46 KLOX 210002 CCA
TAFPMD
TAF COR
KPMD 210002Z 2100/2124 23018G26KT P6SM BKN250
     FM210100 23014KT P6SM SCT250
     FM210600 21008KT P6SM SCT250
     FM211900 22014G22KT P6SM FEW035 SCT050
     FM212100 23020G30KT P6SM FEW035 SCT050=



000
FTUS46 KLOX 210000 RRA
TAFWJF
TAF
KWJF 210000Z 2100/2124 23018G28KT P6SM BKN250
     FM210200 23015KT P6SM SCT250
     FM211000 24010KT P6SM SCT250=



000
FTUS46 KLOX 210000 RRA
TAFVNY
TAF
KVNY 210000Z 2100/2124 17010KT P6SM SCT040
     FM210300 14004KT P6SM SCT250
     FM211100 VRB03KT P6SM BKN014
     FM211600 15005KT P6SM BKN019 BKN045
     FM211800 17012KT P6SM SCT024 SCT050=



000
FTUS46 KLOX 210000 RRA
TAFPMD
TAF
KPMD 210000Z 2100/2124 23015G25KT P6SM BKN250
     FM210100 23014KT P6SM SCT250
     FM210600 21008KT P6SM SCT250=



000
FTUS46 KLOX 210000 RRA
TAFSBA
TAF
KSBA 210000Z 2100/2124 24010KT P6SM BKN250
     FM210200 VRB03KT P6SM SCT250
     FM210900 11003KT P6SM BKN020
     FM211300 16005KT P6SM BKN025=



000
FTUS46 KLOX 210000 RRA
TAFPRB
TAF
KPRB 210000Z 2100/2124 21015G25KT P6SM SCT250
     FM210300 21008KT P6SM SCT250
     FM210500 31010KT P6SM SCT010 SCT250
     FM211000 29008KT P6SM OVC015
     FM211300 VRB03KT 6SM -DZ BR BKN010 OVC020
     FM211600 VRB03KT P6SM BKN020
     FM211800 21008KT P6SM SCT025 BKN050
     FM212000 20015G25KT P6SM SCT040 SCT070=



000
FTUS46 KLOX 210000 RRA
TAFSBP
TAF
KSBP 210000Z 2100/2124 31014KT P6SM SCT250
     FM210200 31008KT P6SM SCT250
     FM210400 31006KT P6SM BKN020
     FM210700 VRB03KT P6SM OVC015
     FM211300 16004KT 6SM -DZ BR BKN010 OVC020
     FM211600 VRB03KT P6SM BKN015 OVC030
     FM212000 27008KT P6SM BKN020 BKN040=



000
FTUS46 KLOX 210000 RRA
TAFLGB
TAF
KLGB 210000Z 2100/2124 19010KT P6SM FEW040
     FM210200 29009KT P6SM FEW022 SCT250
     FM210700 VRB03KT P6SM BKN022 BKN035
     FM211300 13005KT P6SM BKN027 BKN040
     FM211600 16008KT P6SM BKN035
     FM211800 19010G15KT P6SM SCT035=



000
FTUS46 KLOX 210000 RRA
TAFSMX
TAF
KSMX 210000Z 2100/2124 31014KT P6SM SCT250
     FM210300 31008KT P6SM SCT250
     FM210500 31006KT P6SM BKN020
     FM210800 VRB03KT P6SM OVC015
     FM211300 16004KT 6SM -DZ BR BKN010 OVC020
     FM211600 VRB03KT P6SM BKN015 OVC030
     FM212000 29008KT P6SM BKN020 BKN040=



000
FTUS46 KLOX 210000 RRA
TAFWJF
TAF
KWJF 210000Z 2100/2124 23018G28KT P6SM BKN250
     FM210200 23015KT P6SM SCT250
     FM211000 24010KT P6SM SCT250=



000
FTUS46 KLOX 210000 RRA
TAFPMD
TAF
KPMD 210000Z 2100/2124 23015G25KT P6SM BKN250
     FM210100 23014KT P6SM SCT250
     FM210600 21008KT P6SM SCT250=



000
FTUS46 KLOX 210000 RRA
TAFSBA
TAF
KSBA 210000Z 2100/2124 24010KT P6SM BKN250
     FM210200 VRB03KT P6SM SCT250
     FM210900 11003KT P6SM BKN020
     FM211300 16005KT P6SM BKN025=



000
FTUS46 KLOX 210000 RRA
TAFVNY
TAF
KVNY 210000Z 2100/2124 17010KT P6SM SCT040
     FM210300 14004KT P6SM SCT250
     FM211100 VRB03KT P6SM BKN014
     FM211600 15005KT P6SM BKN019 BKN045
     FM211800 17012KT P6SM SCT024 SCT050=



000
FTUS46 KLOX 210000 RRA
TAFPRB
TAF
KPRB 210000Z 2100/2124 21015G25KT P6SM SCT250
     FM210300 21008KT P6SM SCT250
     FM210500 31010KT P6SM SCT010 SCT250
     FM211000 29008KT P6SM OVC015
     FM211300 VRB03KT 6SM -DZ BR BKN010 OVC020
     FM211600 VRB03KT P6SM BKN020
     FM211800 21008KT P6SM SCT025 BKN050
     FM212000 20015G25KT P6SM SCT040 SCT070=



000
FTUS46 KLOX 210000 RRA
TAFLGB
TAF
KLGB 210000Z 2100/2124 19010KT P6SM FEW040
     FM210200 29009KT P6SM FEW022 SCT250
     FM210700 VRB03KT P6SM BKN022 BKN035
     FM211300 13005KT P6SM BKN027 BKN040
     FM211600 16008KT P6SM BKN035
     FM211800 19010G15KT P6SM SCT035=



000
FTUS46 KLOX 210000 RRA
TAFSMX
TAF
KSMX 210000Z 2100/2124 31014KT P6SM SCT250
     FM210300 31008KT P6SM SCT250
     FM210500 31006KT P6SM BKN020
     FM210800 VRB03KT P6SM OVC015
     FM211300 16004KT 6SM -DZ BR BKN010 OVC020
     FM211600 VRB03KT P6SM BKN015 OVC030
     FM212000 29008KT P6SM BKN020 BKN040=



000
FTUS46 KLOX 210000 RRA
TAFSBP
TAF
KSBP 210000Z 2100/2124 31014KT P6SM SCT250
     FM210200 31008KT P6SM SCT250
     FM210400 31006KT P6SM BKN020
     FM210700 VRB03KT P6SM OVC015
     FM211300 16004KT 6SM -DZ BR BKN010 OVC020
     FM211600 VRB03KT P6SM BKN015 OVC030
     FM212000 27008KT P6SM BKN020 BKN040=



000
FTUS46 KLOX 202340
TAFLAX
TAF
KLAX 202340Z 2100/2206 26012G18KT P6SM FEW040
     FM210400 27009KT P6SM FEW020 SCT250
     FM210700 VRB03KT P6SM BKN020 BKN035
     FM211300 10006KT P6SM BKN025 BKN040
     FM211600 26008KT P6SM BKN030
     FM211900 25014G20KT P6SM SCT035
     FM220400 26008KT P6SM SCT025=



000
FTUS46 KLOX 202340
TAFLAX
TAF
KLAX 202340Z 2100/2206 26012G18KT P6SM FEW040
     FM210400 27009KT P6SM FEW020 SCT250
     FM210700 VRB03KT P6SM BKN020 BKN035
     FM211300 10006KT P6SM BKN025 BKN040
     FM211600 26008KT P6SM BKN030
     FM211900 25014G20KT P6SM SCT035
     FM220400 26008KT P6SM SCT025=



000
FTUS46 KLOX 202340
TAFBUR
TAF
KBUR 202340Z 2100/2124 15011G17KT P6SM SCT040
     FM210300 16005KT P6SM SCT250
     FM211100 VRB03KT P6SM BKN015
     FM211600 16007KT P6SM BKN020 BKN045
     FM211800 18010KT P6SM SCT025 SCT050=



000
FTUS46 KLOX 202340
TAFBUR
TAF
KBUR 202340Z 2100/2124 15011G17KT P6SM SCT040
     FM210300 16005KT P6SM SCT250
     FM211100 VRB03KT P6SM BKN015
     FM211600 16007KT P6SM BKN020 BKN045
     FM211800 18010KT P6SM SCT025 SCT050=



000
FTUS46 KLOX 202307 AAB
TAFSBP
TAF AMD
KSBP 202307Z 2023/2118 23008KT P6SM SCT025
     FM210000 27012KT P6SM SCT250
     FM210300 32008KT P6SM SCT250
     FM210500 32006KT P6SM OVC025
     FM210800 VRB03KT P6SM OVC015=



000
FTUS46 KLOX 202307 AAB
TAFSBP
TAF AMD
KSBP 202307Z 2023/2118 23008KT P6SM SCT025
     FM210000 27012KT P6SM SCT250
     FM210300 32008KT P6SM SCT250
     FM210500 32006KT P6SM OVC025
     FM210800 VRB03KT P6SM OVC015=



000
FTUS46 KLOX 202145 AAA
TAFVNY
TAF AMD
KVNY 202145Z 2022/2118 16010KT P6SM SCT025
     FM210200 VRB03KT P6SM SCT250
     FM210800 VRB03KT P6SM OVC015=



000
FTUS46 KLOX 202144 AAA
TAFSBP
TAF AMD
KSBP 202144Z 2022/2118 16006KT P6SM SCT025
     FM202300 27012KT P6SM SCT250
     FM210300 32008KT P6SM SCT250
     FM210500 32006KT P6SM OVC025
     FM210800 VRB03KT P6SM OVC015=



000
FTUS46 KLOX 202144 AAA
TAFSMX
TAF AMD
KSMX 202144Z 2022/2118 32010G18KT P6SM SCT030
     FM210300 31007KT P6SM OVC025
     FM210600 VRB03KT P6SM OVC015=



000
FTUS46 KLOX 202118 AAB
TAFLAX
TAF AMD
KLAX 202118Z 2021/2124 26012KT P6SM FEW022 SCT040
     FM210100 27008KT P6SM FEW020 SCT250
     FM210600 VRB03KT P6SM OVC020
     FM211600 VRB03KT P6SM BKN035
     FM211900 25012KT P6SM SCT035=



000
FTUS46 KLOX 202000 AAB
TAFBUR
TAF AMD
KBUR 202000Z 2020/2118 16007KT P6SM SCT035
     FM210200 VRB03KT P6SM SCT250
     FM210800 VRB03KT P6SM OVC015=



000
FTUS46 KLOX 202000 AAB
TAFBUR
TAF AMD
KBUR 202000Z 2020/2118 16007KT P6SM SCT035
     FM210200 VRB03KT P6SM SCT250
     FM210800 VRB03KT P6SM OVC015=



000
FTUS46 KLOX 201959 AAA
TAFWJF
TAF AMD
KWJF 201959Z 2020/2118 22013G18KT P6SM SKC
     FM202100 23018G28KT P6SM BKN250
     FM210200 23015KT P6SM SCT250
     FM211000 24010KT P6SM SCT250=



000
FTUS46 KLOX 201959 AAA
TAFWJF
TAF AMD
KWJF 201959Z 2020/2118 22013G18KT P6SM SKC
     FM202100 23018G28KT P6SM BKN250
     FM210200 23015KT P6SM SCT250
     FM211000 24010KT P6SM SCT250=



000
FTUS46 KLOX 201958 AAA
TAFPMD
TAF AMD
KPMD 201958Z 2020/2118 28008G17KT P6SM SKC
     FM202100 23015G25KT P6SM BKN250
     FM210100 23014KT P6SM SCT250
     FM210600 21008KT P6SM SCT250=



000
FTUS46 KLOX 201958 AAA
TAFPMD
TAF AMD
KPMD 201958Z 2020/2118 28008G17KT P6SM SKC
     FM202100 23015G25KT P6SM BKN250
     FM210100 23014KT P6SM SCT250
     FM210600 21008KT P6SM SCT250=



000
FTUS46 KLOX 201827 AAA
TAFBUR
TAF AMD
KBUR 201827Z 2018/2118 19008KT P6SM BKN035
     FM201900 18008KT P6SM BKN025
     FM210200 VRB03KT P6SM SCT250
     FM210800 VRB03KT P6SM OVC015=



000
FTUS46 KLOX 201827 AAA
TAFLAX
TAF AMD
KLAX 201827Z 2018/2124 27010KT P6SM SCT027 BKN035 BKN140
     FM202000 26014KT P6SM SCT035 BKN250
     FM210100 27008KT P6SM FEW020 SCT250
     FM210600 VRB03KT P6SM OVC020
     FM211600 VRB03KT P6SM BKN035
     FM211900 25012KT P6SM SCT035=



000
FTUS46 KLOX 201827 AAA
TAFLGB
TAF AMD
KLGB 201827Z 2018/2118 15008KT P6SM SCT035
     FM202000 19010KT P6SM SCT030 BKN250
     FM210200 30010KT P6SM SCT250
     FM210600 VRB03KT P6SM OVC025
     FM211600 VRB03KT P6SM BKN035=



000
FTUS46 KLOX 201827 AAA
TAFBUR
TAF AMD
KBUR 201827Z 2018/2118 19008KT P6SM BKN035
     FM201900 18008KT P6SM BKN025
     FM210200 VRB03KT P6SM SCT250
     FM210800 VRB03KT P6SM OVC015=



000
FTUS46 KLOX 201827 AAA
TAFLGB
TAF AMD
KLGB 201827Z 2018/2118 15008KT P6SM SCT035
     FM202000 19010KT P6SM SCT030 BKN250
     FM210200 30010KT P6SM SCT250
     FM210600 VRB03KT P6SM OVC025
     FM211600 VRB03KT P6SM BKN035=



000
FTUS46 KLOX 201827 AAA
TAFLAX
TAF AMD
KLAX 201827Z 2018/2124 27010KT P6SM SCT027 BKN035 BKN140
     FM202000 26014KT P6SM SCT035 BKN250
     FM210100 27008KT P6SM FEW020 SCT250
     FM210600 VRB03KT P6SM OVC020
     FM211600 VRB03KT P6SM BKN035
     FM211900 25012KT P6SM SCT035=



000
FTUS46 KLOX 201740
TAFPRB
TAF
KPRB 201740Z 2018/2118 00000KT P6SM SCT016
     FM202100 20010KT P6SM BKN250
     FM202300 21015G25KT P6SM SCT250
     FM210300 29008KT P6SM SCT250
     FM210800 VRB03KT P6SM OVC015=



000
FTUS46 KLOX 201740
TAFSBP
TAF
KSBP 201740Z 2018/2118 16006KT P6SM OVC024
     FM202100 28015KT P6SM SCT250
     FM210300 32008KT P6SM SCT250
     FM210500 32006KT P6SM OVC025
     FM210800 VRB03KT P6SM OVC015=



000
FTUS46 KLOX 201740
TAFSBA
TAF
KSBA 201740Z 2018/2118 18004KT P6SM FEW015 FEW030
     FM201900 24010KT P6SM BKN250
     FM210200 VRB03KT P6SM SCT250
     FM210800 VRB03KT P6SM OVC020=



000
FTUS46 KLOX 201740
TAFSMX
TAF
KSMX 201740Z 2018/2118 32009KT P6SM OVC030
     FM202000 31014KT P6SM SCT030
     FM210300 31007KT P6SM OVC025
     FM210600 VRB03KT P6SM OVC015=



000
FTUS46 KLOX 201740
TAFVNY
TAF
KVNY 201740Z 2018/2118 17007KT P6SM BKN025
     FM201900 16010KT P6SM BKN025
     FM210200 VRB03KT P6SM SCT250
     FM210800 VRB03KT P6SM OVC015=



000
FTUS46 KLOX 201740
TAFPMD
TAF
KPMD 201740Z 2018/2118 VRB05KT P6SM SKC
     FM202100 23015G25KT P6SM BKN250
     FM210100 23014KT P6SM SCT250
     FM210600 21008KT P6SM SCT250=



000
FTUS46 KLOX 201740
TAFLAX
TAF
KLAX 201740Z 2018/2124 VRB03KT P6SM BKN027 BKN035 BKN140
     FM202000 26014KT P6SM SCT035 BKN250
     FM210100 27008KT P6SM FEW020 SCT250
     FM210600 VRB03KT P6SM OVC020
     FM211600 VRB03KT P6SM BKN035
     FM211900 25012KT P6SM SCT035=



000
FTUS46 KLOX 201740
TAFBUR
TAF
KBUR 201740Z 2018/2118 VRB03KT P6SM BKN026
     FM201900 18008KT P6SM BKN025
     FM210200 VRB03KT P6SM SCT250
     FM210800 VRB03KT P6SM OVC015=



000
FTUS46 KLOX 201740
TAFLGB
TAF
KLGB 201740Z 2018/2118 15007KT P6SM BKN030
     FM202000 19010KT P6SM SCT030 BKN250
     FM210200 30010KT P6SM SCT250
     FM210600 VRB03KT P6SM OVC025
     FM211600 VRB03KT P6SM BKN035=



000
FTUS46 KLOX 201740
TAFWJF
TAF
KWJF 201740Z 2018/2118 23005KT P6SM SKC
     FM202000 23018G28KT P6SM BKN250
     FM210200 23015KT P6SM SCT250
     FM211000 24010KT P6SM SCT250=



000
FTUS46 KLOX 201630 AAA
TAFLGB
TAF AMD
KLGB 201630Z 2017/2112 19004KT P6SM FEW021 OVC030
     FM201900 19010KT P6SM SCT030 BKN250
     FM210200 30010KT P6SM SCT250
     FM210600 VRB03KT P6SM OVC025=



000
FTUS46 KLOX 201630 AAA
TAFLGB
TAF AMD
KLGB 201630Z 2017/2112 19004KT P6SM FEW021 OVC030
     FM201900 19010KT P6SM SCT030 BKN250
     FM210200 30010KT P6SM SCT250
     FM210600 VRB03KT P6SM OVC025=



000
FTUS46 KLOX 201626 AAA
TAFPRB
TAF AMD
KPRB 201626Z 2016/2112 VRB03KT P6SM OVC014
     FM201800 VRB03KT P6SM FEW015 BKN250
     FM202100 20010KT P6SM BKN250
     FM202300 21014G22KT P6SM SCT250
     FM210300 29008KT P6SM SCT250
     FM210800 VRB03KT P6SM OVC015=



    US Dept of Commerce
    National Oceanic and Atmospheric Administration
    National Weather Service
    1325 East West Highway
    Silver Spring, MD 20910
    Page Author: NWS Internet Services Team
Disclaimer
Information Quality
Credits
Glossary
Privacy Policy
Freedom of Information Act (FOIA)
About Us
Career Opportunities